Wetterdaten: Montag, 15.02.2021
Datum Zeit Temp. Aussen Temp. o. S. Temp +5cm Feuchte Auss Luftdruck Regen Sonnenschein Regendauer Solar Windben Empfang
15.02.2021 00:00 0,6 C 0,0 C -3,8 C 59 % 1031,9 hPa 0,0 l/m 0 min 0 min 0 W/m 3,2 km/h (1 Bft) 100,00 %
15.02.2021 00:02 0,6 C 0,0 C -3,8 C 59 % 1031,9 hPa 0,0 l/m 0 min 0 min 0 W/m 3,2 km/h (1 Bft) 100,00 %
15.02.2021 00:04 0,6 C 0,0 C -3,8 C 59 % 1031,9 hPa 0,0 l/m 0 min 0 min 0 W/m 0,0 km/h (0 Bft) 100,00 %
15.02.2021 00:08 0,5 C 0,0 C -3,8 C 59 % 1031,9 hPa 0,0 l/m 0 min 0 min 0 W/m 3,2 km/h (1 Bft) 98,94 %
15.02.2021 00:10 0,5 C 0,0 C -3,8 C 59 % 1031,9 hPa 0,0 l/m 0 min 0 min 0 W/m 0,0 km/h (0 Bft) 100,00 %
15.02.2021 00:12 0,5 C 0,0 C -3,8 C 59 % 1031,9 hPa 0,0 l/m 0 min 0 min 0 W/m 0,0 km/h (0 Bft) 100,00 %
15.02.2021 00:14 0,5 C 0,0 C -3,8 C 59 % 1031,9 hPa 0,0 l/m 0 min 0 min 0 W/m 3,2 km/h (1 Bft) 97,87 %
15.02.2021 00:16 0,5 C 0,0 C -3,8 C 60 % 1031,8 hPa 0,0 l/m 0 min 0 min 0 W/m 3,2 km/h (1 Bft) 100,00 %
15.02.2021 00:18 0,5 C 0,0 C -3,8 C 59 % 1031,7 hPa 0,0 l/m 0 min 0 min 0 W/m 0,0 km/h (0 Bft) 97,87 %
15.02.2021 00:20 0,5 C 0,0 C -3,8 C 59 % 1031,7 hPa 0,0 l/m 0 min 0 min 0 W/m 0,0 km/h (0 Bft) 97,83 %
15.02.2021 00:22 0,5 C 0,0 C -3,8 C 59 % 1031,6 hPa 0,0 l/m 0 min 0 min 0 W/m 3,2 km/h (1 Bft) 95,74 %
15.02.2021 00:24 0,5 C 0,0 C -3,8 C 60 % 1031,6 hPa 0,0 l/m 0 min 0 min 0 W/m 6,4 km/h (2 Bft) 97,83 %
15.02.2021 00:26 0,5 C 0,0 C -3,8 C 60 % 1031,5 hPa 0,0 l/m 0 min 0 min 0 W/m 0,0 km/h (0 Bft) 97,87 %
15.02.2021 00:28 0,5 C 0,0 C -3,8 C 60 % 1031,5 hPa 0,0 l/m 0 min 0 min 0 W/m 6,4 km/h (2 Bft) 97,87 %
15.02.2021 00:30 0,5 C 0,0 C -3,8 C 60 % 1031,5 hPa 0,0 l/m 0 min 0 min 0 W/m 3,2 km/h (1 Bft) 97,87 %
15.02.2021 00:32 0,5 C 0,0 C -3,8 C 60 % 1031,5 hPa 0,0 l/m 0 min 0 min 0 W/m 3,2 km/h (1 Bft) 95,74 %
15.02.2021 00:34 0,5 C 0,0 C -3,8 C 60 % 1031,4 hPa 0,0 l/m 0 min 0 min 0 W/m 3,2 km/h (1 Bft) 97,87 %
15.02.2021 00:36 0,5 C 0,0 C -3,8 C 60 % 1031,4 hPa 0,0 l/m 0 min 0 min 0 W/m 6,4 km/h (2 Bft) 97,87 %
15.02.2021 00:38 0,5 C 0,0 C -3,8 C 60 % 1031,3 hPa 0,0 l/m 0 min 0 min 0 W/m 3,2 km/h (1 Bft) 97,87 %
15.02.2021 00:40 0,5 C 0,0 C -3,8 C 60 % 1031,3 hPa 0,0 l/m 0 min 0 min 0 W/m 3,2 km/h (1 Bft) 97,87 %
15.02.2021 00:42 0,5 C 0,0 C -3,8 C 59 % 1031,2 hPa 0,0 l/m 0 min 0 min 0 W/m 0,0 km/h (0 Bft) 97,87 %
15.02.2021 00:44 0,5 C 0,0 C -3,8 C 60 % 1031,3 hPa 0,0 l/m 0 min 0 min 0 W/m 0,0 km/h (0 Bft) 97,83 %
15.02.2021 00:46 0,4 C 0,0 C -3,8 C 60 % 1031,3 hPa 0,0 l/m 0 min 0 min 0 W/m 0,0 km/h (0 Bft) 97,87 %
15.02.2021 00:48 0,4 C 0,0 C -3,8 C 59 % 1031,3 hPa 0,0 l/m 0 min 0 min 0 W/m 3,2 km/h (1 Bft) 97,87 %
15.02.2021 00:50 0,4 C 0,0 C -3,8 C 60 % 1031,3 hPa 0,0 l/m 0 min 0 min 0 W/m 3,2 km/h (1 Bft) 97,87 %
15.02.2021 00:52 0,4 C 0,0 C -4,4 C 60 % 1031,3 hPa 0,0 l/m 0 min 0 min 0 W/m 0,0 km/h (0 Bft) 93,62 %
15.02.2021 00:54 0,4 C 0,0 C -4,4 C 60 % 1031,3 hPa 0,0 l/m 0 min 0 min 0 W/m 3,2 km/h (1 Bft) 97,87 %
15.02.2021 00:56 0,4 C 0,0 C -4,4 C 60 % 1031,3 hPa 0,0 l/m 0 min 0 min 0 W/m 0,0 km/h (0 Bft) 97,83 %
15.02.2021 00:58 0,4 C -0,6 C -4,4 C 60 % 1031,5 hPa 0,0 l/m 0 min 0 min 0 W/m 0,0 km/h (0 Bft) 97,87 %
15.02.2021 01:00 0,4 C 0,0 C -4,4 C 60 % 1031,5 hPa 0,0 l/m 0 min 0 min 0 W/m 0,0 km/h (0 Bft) 97,87 %
15.02.2021 01:02 0,4 C 0,0 C -4,4 C 60 % 1031,4 hPa 0,0 l/m 0 min 0 min 0 W/m 0,0 km/h (0 Bft) 93,62 %
15.02.2021 01:04 0,4 C 0,0 C -4,4 C 60 % 1031,4 hPa 0,0 l/m 0 min 0 min 0 W/m 3,2 km/h (1 Bft) 95,74 %
15.02.2021 01:06 0,4 C 0,0 C -3,8 C 59 % 1031,3 hPa 0,0 l/m 0 min 0 min 0 W/m 3,2 km/h (1 Bft) 93,62 %
15.02.2021 01:08 0,3 C 0,0 C -4,4 C 60 % 1031,3 hPa 0,0 l/m 0 min 0 min 0 W/m 3,2 km/h (1 Bft) 93,48 %
15.02.2021 01:10 0,3 C 0,0 C -3,8 C 60 % 1031,2 hPa 0,0 l/m 0 min 0 min 0 W/m 0,0 km/h (0 Bft) 93,62 %
15.02.2021 01:12 0,3 C 0,0 C -3,8 C 59 % 1031,1 hPa 0,0 l/m 0 min 0 min 0 W/m 3,2 km/h (1 Bft) 89,36 %
15.02.2021 01:14 0,3 C 0,0 C -4,4 C 60 % 1031,1 hPa 0,0 l/m 0 min 0 min 0 W/m 0,0 km/h (0 Bft) 93,62 %
15.02.2021 01:16 0,3 C 0,0 C -4,4 C 60 % 1031,0 hPa 0,0 l/m 0 min 0 min 0 W/m 6,4 km/h (2 Bft) 93,62 %
15.02.2021 01:18 0,3 C 0,0 C -3,8 C 60 % 1031,1 hPa 0,0 l/m 0 min 0 min 0 W/m 3,2 km/h (1 Bft) 93,62 %
15.02.2021 01:20 0,4 C 0,0 C -3,8 C 60 % 1031,2 hPa 0,0 l/m 0 min 0 min 0 W/m 3,2 km/h (1 Bft) 93,48 %
15.02.2021 01:22 0,4 C 0,0 C -3,8 C 60 % 1031,2 hPa 0,0 l/m 0 min 0 min 0 W/m 3,2 km/h (1 Bft) 93,62 %
15.02.2021 01:24 0,4 C 0,0 C -3,8 C 60 % 1031,2 hPa 0,0 l/m 0 min 0 min 0 W/m 0,0 km/h (0 Bft) 93,62 %
15.02.2021 01:26 0,4 C 0,0 C -3,8 C 60 % 1031,2 hPa 0,0 l/m 0 min 0 min 0 W/m 0,0 km/h (0 Bft) 91,49 %
15.02.2021 01:28 0,4 C 0,0 C -3,8 C 60 % 1031,2 hPa 0,0 l/m 0 min 0 min 0 W/m 3,2 km/h (1 Bft) 93,62 %
15.02.2021 01:30 0,4 C 0,0 C -3,8 C 60 % 1031,1 hPa 0,0 l/m 0 min 0 min 0 W/m 3,2 km/h (1 Bft) 93,48 %
15.02.2021 01:32 0,4 C 0,0 C -3,8 C 60 % 1031,2 hPa 0,0 l/m 0 min 0 min 0 W/m 3,2 km/h (1 Bft) 95,74 %
15.02.2021 01:34 0,4 C 0,0 C -3,8 C 60 % 1031,0 hPa 0,0 l/m 0 min 0 min 0 W/m 3,2 km/h (1 Bft) 95,74 %
15.02.2021 01:36 0,4 C 0,0 C -3,8 C 60 % 1031,0 hPa 0,0 l/m 0 min 0 min 0 W/m 3,2 km/h (1 Bft) 91,49 %
15.02.2021 01:38 0,4 C 0,0 C -3,8 C 60 % 1031,0 hPa 0,0 l/m 0 min 0 min 0 W/m 3,2 km/h (1 Bft) 93,62 %
15.02.2021 01:40 0,4 C 0,0 C -3,8 C 60 % 1031,0 hPa 0,0 l/m 0 min 0 min 0 W/m 6,4 km/h (2 Bft) 95,74 %
15.02.2021 01:42 0,4 C 0,0 C -3,8 C 60 % 1030,9 hPa 0,0 l/m 0 min 0 min 0 W/m 3,2 km/h (1 Bft) 95,65 %
15.02.2021 01:44 0,4 C 0,0 C -3,8 C 60 % 1030,8 hPa 0,0 l/m 0 min 0 min 0 W/m 0,0 km/h (0 Bft) 91,49 %
15.02.2021 01:46 0,4 C 0,0 C -3,8 C 60 % 1030,8 hPa 0,0 l/m 0 min 0 min 0 W/m 3,2 km/h (1 Bft) 95,74 %
15.02.2021 01:48 0,4 C 0,0 C -3,8 C 60 % 1030,7 hPa 0,0 l/m 0 min 0 min 0 W/m 3,2 km/h (1 Bft) 95,74 %
15.02.2021 01:50 0,4 C 0,0 C -3,8 C 60 % 1030,7 hPa 0,0 l/m 0 min 0 min 0 W/m 0,0 km/h (0 Bft) 97,87 %
15.02.2021 01:52 0,4 C 0,0 C -3,8 C 60 % 1030,6 hPa 0,0 l/m 0 min 0 min 0 W/m 3,2 km/h (1 Bft) 97,87 %
15.02.2021 01:54 0,4 C 0,0 C -3,8 C 60 % 1030,5 hPa 0,0 l/m 0 min 0 min 0 W/m 0,0 km/h (0 Bft) 97,83 %
15.02.2021 01:56 0,4 C 0,0 C -3,8 C 60 % 1030,5 hPa 0,0 l/m 0 min 0 min 0 W/m 0,0 km/h (0 Bft) 95,74 %
15.02.2021 01:58 0,4 C 0,0 C -3,8 C 60 % 1030,4 hPa 0,0 l/m 0 min 0 min 0 W/m 3,2 km/h (1 Bft) 100,00 %
15.02.2021 02:00 0,4 C 0,0 C -3,8 C 60 % 1030,3 hPa 0,0 l/m 0 min 0 min 0 W/m 3,2 km/h (1 Bft) 97,87 %
15.02.2021 02:02 0,4 C 0,0 C -3,8 C 60 % 1030,3 hPa 0,0 l/m 0 min 0 min 0 W/m 6,4 km/h (2 Bft) 100,00 %
15.02.2021 02:04 0,4 C 0,0 C -3,8 C 59 % 1030,1 hPa 0,0 l/m 0 min 0 min 0 W/m 6,4 km/h (2 Bft) 100,00 %
15.02.2021 02:06 0,5 C 0,0 C -3,8 C 59 % 1030,0 hPa 0,0 l/m 0 min 0 min 0 W/m 0,0 km/h (0 Bft) 100,00 %
15.02.2021 02:08 0,5 C 0,0 C -3,8 C 59 % 1030,1 hPa 0,0 l/m 0 min 0 min 0 W/m 12,9 km/h (3 Bft) 97,87 %
15.02.2021 02:10 0,5 C 0,0 C -3,8 C 59 % 1030,1 hPa 0,0 l/m 0 min 0 min 0 W/m 9,7 km/h (2 Bft) 97,87 %
15.02.2021 02:12 0,5 C 0,0 C -3,8 C 59 % 1030,3 hPa 0,0 l/m 0 min 0 min 0 W/m 3,2 km/h (1 Bft) 91,49 %
15.02.2021 02:14 0,5 C 0,0 C -3,8 C 59 % 1030,3 hPa 0,0 l/m 0 min 0 min 0 W/m 3,2 km/h (1 Bft) 65,96 %
15.02.2021 02:16 0,5 C 0,0 C -3,8 C 59 % 1030,3 hPa 0,0 l/m 0 min 0 min 0 W/m 6,4 km/h (2 Bft) 100,00 %
15.02.2021 02:18 0,5 C 0,0 C -3,8 C 59 % 1030,2 hPa 0,0 l/m 0 min 0 min 0 W/m 0,0 km/h (0 Bft) 97,83 %
15.02.2021 02:20 0,5 C 0,0 C -3,8 C 59 % 1030,2 hPa 0,0 l/m 0 min 0 min 0 W/m 3,2 km/h (1 Bft) 100,00 %
15.02.2021 02:22 0,5 C 0,0 C -3,8 C 59 % 1030,1 hPa 0,0 l/m 0 min 0 min 0 W/m 3,2 km/h (1 Bft) 100,00 %
15.02.2021 02:24 0,5 C 0,0 C -3,8 C 59 % 1030,2 hPa 0,0 l/m 0 min 0 min 0 W/m 3,2 km/h (1 Bft) 97,87 %
15.02.2021 02:26 0,5 C 0,0 C -3,8 C 59 % 1030,0 hPa 0,0 l/m 0 min 0 min 0 W/m 9,7 km/h (2 Bft) 100,00 %
15.02.2021 02:28 0,5 C 0,0 C -3,8 C 59 % 1030,0 hPa 0,0 l/m 0 min 0 min 0 W/m 3,2 km/h (1 Bft) 100,00 %
15.02.2021 02:30 0,5 C 0,0 C -3,8 C 59 % 1030,0 hPa 0,0 l/m 0 min 0 min 0 W/m 3,2 km/h (1 Bft) 100,00 %
15.02.2021 02:32 0,5 C 0,0 C -3,8 C 58 % 1030,2 hPa 0,0 l/m 0 min 0 min 0 W/m 3,2 km/h (1 Bft) 100,00 %
15.02.2021 02:34 0,5 C 0,0 C -3,8 C 59 % 1030,1 hPa 0,0 l/m 0 min 0 min 0 W/m 3,2 km/h (1 Bft) 100,00 %
15.02.2021 02:36 0,5 C 0,0 C -3,8 C 59 % 1030,0 hPa 0,0 l/m 0 min 0 min 0 W/m 6,4 km/h (2 Bft) 100,00 %
15.02.2021 02:38 0,5 C 0,0 C -3,8 C 59 % 1030,1 hPa 0,0 l/m 0 min 0 min 0 W/m 6,4 km/h (2 Bft) 100,00 %
15.02.2021 02:40 0,5 C 0,0 C -3,8 C 58 % 1030,1 hPa 0,0 l/m 0 min 0 min 0 W/m 3,2 km/h (1 Bft) 97,83 %
15.02.2021 02:42 0,5 C 0,0 C -3,8 C 59 % 1030,1 hPa 0,0 l/m 0 min 0 min 0 W/m 6,4 km/h (2 Bft) 100,00 %
15.02.2021 02:44 0,5 C 0,0 C -3,8 C 58 % 1030,0 hPa 0,0 l/m 0 min 0 min 0 W/m 3,2 km/h (1 Bft) 97,87 %
15.02.2021 02:46 0,5 C 0,0 C -3,8 C 58 % 1030,1 hPa 0,0 l/m 0 min 0 min 0 W/m 3,2 km/h (1 Bft) 100,00 %
15.02.2021 02:48 0,5 C 0,0 C -3,8 C 58 % 1030,0 hPa 0,0 l/m 0 min 0 min 0 W/m 3,2 km/h (1 Bft) 100,00 %
15.02.2021 02:50 0,5 C 0,0 C -3,8 C 58 % 1030,0 hPa 0,0 l/m 0 min 0 min 0 W/m 6,4 km/h (2 Bft) 100,00 %
15.02.2021 02:52 0,5 C 0,0 C -3,8 C 58 % 1030,0 hPa 0,0 l/m 0 min 0 min 0 W/m 6,4 km/h (2 Bft) 100,00 %
15.02.2021 02:54 0,5 C 0,0 C -3,8 C 58 % 1029,9 hPa 0,0 l/m 0 min 0 min 0 W/m 3,2 km/h (1 Bft) 100,00 %
15.02.2021 02:56 0,5 C 0,0 C -3,8 C 58 % 1030,0 hPa 0,0 l/m 0 min 0 min 0 W/m 12,9 km/h (3 Bft) 100,00 %
15.02.2021 02:58 0,5 C 0,0 C -3,8 C 59 % 1030,1 hPa 0,0 l/m 0 min 0 min 0 W/m 6,4 km/h (2 Bft) 100,00 %
15.02.2021 03:00 0,5 C 0,0 C -3,8 C 59 % 1030,1 hPa 0,0 l/m 0 min 0 min 0 W/m 0,0 km/h (0 Bft) 100,00 %
15.02.2021 03:02 0,5 C 0,0 C -3,8 C 58 % 1030,1 hPa 0,0 l/m 0 min 0 min 0 W/m 3,2 km/h (1 Bft) 100,00 %
15.02.2021 03:04 0,5 C 0,0 C -3,8 C 58 % 1030,1 hPa 0,0 l/m 0 min 0 min 0 W/m 3,2 km/h (1 Bft) 100,00 %
15.02.2021 03:06 0,5 C 0,0 C -3,8 C 59 % 1030,3 hPa 0,0 l/m 0 min 0 min 0 W/m 3,2 km/h (1 Bft) 95,74 %
15.02.2021 03:08 0,5 C 0,0 C -3,8 C 59 % 1030,3 hPa 0,0 l/m 0 min 0 min 0 W/m 3,2 km/h (1 Bft) 100,00 %
15.02.2021 03:10 0,5 C 0,0 C -3,8 C 59 % 1030,3 hPa 0,0 l/m 0 min 0 min 0 W/m 0,0 km/h (0 Bft) 100,00 %
15.02.2021 03:12 0,5 C 0,0 C -3,8 C 59 % 1030,3 hPa 0,0 l/m 0 min 0 min 0 W/m 3,2 km/h (1 Bft) 100,00 %
15.02.2021 03:14 0,5 C 0,0 C -3,8 C 58 % 1030,2 hPa 0,0 l/m 0 min 0 min 0 W/m 3,2 km/h (1 Bft) 100,00 %
15.02.2021 03:16 0,5 C 0,0 C -3,8 C 59 % 1030,2 hPa 0,0 l/m 0 min 0 min 0 W/m 3,2 km/h (1 Bft) 100,00 %
15.02.2021 03:18 0,5 C 0,0 C -3,8 C 58 % 1030,1 hPa 0,0 l/m 0 min 0 min 0 W/m 3,2 km/h (1 Bft) 100,00 %
15.02.2021 03:20 0,5 C 0,0 C -3,8 C 59 % 1030,1 hPa 0,0 l/m 0 min 0 min 0 W/m 0,0 km/h (0 Bft) 97,87 %
15.02.2021 03:22 0,5 C 0,0 C -3,8 C 59 % 1030,0 hPa 0,0 l/m 0 min 0 min 0 W/m 6,4 km/h (2 Bft) 97,87 %
15.02.2021 03:24 0,5 C 0,0 C -3,8 C 59 % 1029,9 hPa 0,0 l/m 0 min 0 min 0 W/m 3,2 km/h (1 Bft) 100,00 %
15.02.2021 03:26 0,4 C 0,0 C -3,8 C 59 % 1029,8 hPa 0,0 l/m 0 min 0 min 0 W/m 0,0 km/h (0 Bft) 100,00 %
15.02.2021 03:28 0,4 C 0,0 C -3,8 C 59 % 1029,7 hPa 0,0 l/m 0 min 0 min 0 W/m 3,2 km/h (1 Bft) 97,83 %
15.02.2021 03:30 0,4 C 0,0 C -3,8 C 60 % 1029,6 hPa 0,0 l/m 0 min 0 min 0 W/m 6,4 km/h (2 Bft) 97,87 %
15.02.2021 03:32 0,4 C 0,0 C -3,8 C 59 % 1029,6 hPa 0,0 l/m 0 min 0 min 0 W/m 0,0 km/h (0 Bft) 100,00 %
15.02.2021 03:34 0,4 C 0,0 C -3,8 C 59 % 1029,5 hPa 0,0 l/m 0 min 0 min 0 W/m 3,2 km/h (1 Bft) 97,87 %
15.02.2021 03:36 0,4 C 0,0 C -3,8 C 59 % 1029,5 hPa 0,0 l/m 0 min 0 min 0 W/m 6,4 km/h (2 Bft) 97,87 %
15.02.2021 03:38 0,4 C 0,0 C -3,8 C 60 % 1029,5 hPa 0,0 l/m 0 min 0 min 0 W/m 3,2 km/h (1 Bft) 97,83 %
15.02.2021 03:40 0,3 C 0,0 C -3,8 C 60 % 1029,4 hPa 0,0 l/m 0 min 0 min 0 W/m 3,2 km/h (1 Bft) 97,87 %
15.02.2021 03:42 0,3 C 0,0 C -3,8 C 60 % 1029,4 hPa 0,0 l/m 0 min 0 min 0 W/m 3,2 km/h (1 Bft) 100,00 %
15.02.2021 03:44 0,3 C 0,0 C -3,8 C 60 % 1029,4 hPa 0,0 l/m 0 min 0 min 0 W/m 6,4 km/h (2 Bft) 100,00 %
15.02.2021 03:46 0,3 C 0,0 C -3,8 C 60 % 1029,3 hPa 0,0 l/m 0 min 0 min 0 W/m 3,2 km/h (1 Bft) 95,74 %
15.02.2021 03:48 0,3 C 0,0 C -3,8 C 60 % 1029,4 hPa 0,0 l/m 0 min 0 min 0 W/m 3,2 km/h (1 Bft) 95,74 %
15.02.2021 03:50 0,3 C 0,0 C -3,8 C 60 % 1029,3 hPa 0,0 l/m 0 min 0 min 0 W/m 9,7 km/h (2 Bft) 97,83 %
15.02.2021 03:52 0,3 C 0,0 C -3,8 C 60 % 1029,3 hPa 0,0 l/m 0 min 0 min 0 W/m 3,2 km/h (1 Bft) 100,00 %
15.02.2021 03:54 0,3 C 0,0 C -3,8 C 60 % 1029,2 hPa 0,0 l/m 0 min 0 min 0 W/m 6,4 km/h (2 Bft) 95,74 %
15.02.2021 03:56 0,3 C 0,0 C -3,8 C 60 % 1029,2 hPa 0,0 l/m 0 min 0 min 0 W/m 0,0 km/h (0 Bft) 97,87 %
15.02.2021 03:58 0,3 C 0,0 C -3,8 C 60 % 1029,1 hPa 0,0 l/m 0 min 0 min 0 W/m 3,2 km/h (1 Bft) 97,87 %
15.02.2021 04:00 0,3 C 0,0 C -3,8 C 59 % 1029,2 hPa 0,0 l/m 0 min 0 min 0 W/m 0,0 km/h (0 Bft) 97,87 %
15.02.2021 04:02 0,3 C 0,0 C -3,8 C 59 % 1029,2 hPa 0,0 l/m 0 min 0 min 0 W/m 0,0 km/h (0 Bft) 100,00 %
15.02.2021 04:04 0,3 C 0,0 C -3,8 C 60 % 1029,1 hPa 0,0 l/m 0 min 0 min 0 W/m 0,0 km/h (0 Bft) 95,65 %
15.02.2021 04:06 0,3 C 0,0 C -3,8 C 60 % 1029,0 hPa 0,0 l/m 0 min 0 min 0 W/m 3,2 km/h (1 Bft) 93,62 %
15.02.2021 04:08 0,3 C 0,0 C -4,4 C 60 % 1028,9 hPa 0,0 l/m 0 min 0 min 0 W/m 3,2 km/h (1 Bft) 95,74 %
15.02.2021 04:10 0,3 C 0,0 C -4,4 C 60 % 1028,9 hPa 0,0 l/m 0 min 0 min 0 W/m 3,2 km/h (1 Bft) 95,74 %
15.02.2021 04:12 0,3 C 0,0 C -3,8 C 59 % 1028,9 hPa 0,0 l/m 0 min 0 min 0 W/m 3,2 km/h (1 Bft) 95,74 %
15.02.2021 04:14 0,3 C 0,0 C -3,8 C 59 % 1028,9 hPa 0,0 l/m 0 min 0 min 0 W/m 6,4 km/h (2 Bft) 97,87 %
15.02.2021 04:16 0,4 C 0,0 C -3,8 C 59 % 1029,0 hPa 0,0 l/m 0 min 0 min 0 W/m 6,4 km/h (2 Bft) 95,65 %
15.02.2021 04:18 0,3 C 0,0 C -3,8 C 60 % 1029,0 hPa 0,0 l/m 0 min 0 min 0 W/m 3,2 km/h (1 Bft) 97,87 %
15.02.2021 04:20 0,3 C 0,0 C -3,8 C 60 % 1029,0 hPa 0,0 l/m 0 min 0 min 0 W/m 3,2 km/h (1 Bft) 97,87 %
15.02.2021 04:22 0,3 C 0,0 C -3,8 C 60 % 1029,0 hPa 0,0 l/m 0 min 0 min 0 W/m 0,0 km/h (0 Bft) 97,87 %
15.02.2021 04:24 0,3 C 0,0 C -3,8 C 60 % 1029,0 hPa 0,0 l/m 0 min 0 min 0 W/m 3,2 km/h (1 Bft) 93,62 %
15.02.2021 04:26 0,3 C 0,0 C -3,8 C 60 % 1029,0 hPa 0,0 l/m 0 min 0 min 0 W/m 3,2 km/h (1 Bft) 95,74 %
15.02.2021 04:28 0,3 C 0,0 C -3,8 C 60 % 1028,9 hPa 0,0 l/m 0 min 0 min 0 W/m 3,2 km/h (1 Bft) 95,65 %
15.02.2021 04:30 0,3 C 0,0 C -3,8 C 60 % 1028,9 hPa 0,0 l/m 0 min 0 min 0 W/m 0,0 km/h (0 Bft) 95,74 %
15.02.2021 04:32 0,3 C 0,0 C -3,8 C 60 % 1028,9 hPa 0,0 l/m 0 min 0 min 0 W/m 0,0 km/h (0 Bft) 95,74 %
15.02.2021 04:34 0,3 C 0,0 C -3,8 C 60 % 1028,9 hPa 0,0 l/m 0 min 0 min 0 W/m 12,9 km/h (3 Bft) 95,74 %
15.02.2021 04:36 0,4 C 0,0 C -3,8 C 60 % 1028,8 hPa 0,0 l/m 0 min 0 min 0 W/m 3,2 km/h (1 Bft) 95,74 %
15.02.2021 04:38 0,4 C 0,0 C -3,8 C 60 % 1028,8 hPa 0,0 l/m 0 min 0 min 0 W/m 3,2 km/h (1 Bft) 93,75 %
15.02.2021 04:40 0,4 C 0,0 C -3,8 C 60 % 1028,7 hPa 0,0 l/m 0 min 0 min 0 W/m 3,2 km/h (1 Bft) 95,65 %
15.02.2021 04:42 0,4 C 0,0 C -3,8 C 60 % 1028,7 hPa 0,0 l/m 0 min 0 min 0 W/m 6,4 km/h (2 Bft) 95,74 %
15.02.2021 04:44 0,4 C 0,0 C -3,8 C 60 % 1028,7 hPa 0,0 l/m 0 min 0 min 0 W/m 6,4 km/h (2 Bft) 95,74 %
15.02.2021 04:46 0,4 C 0,0 C -3,8 C 60 % 1028,7 hPa 0,0 l/m 0 min 0 min 0 W/m 0,0 km/h (0 Bft) 95,74 %
15.02.2021 04:48 0,4 C 0,0 C -3,8 C 60 % 1028,6 hPa 0,0 l/m 0 min 0 min 0 W/m 0,0 km/h (0 Bft) 95,74 %
15.02.2021 04:50 0,4 C 0,0 C -3,8 C 60 % 1028,6 hPa 0,0 l/m 0 min 0 min 0 W/m 3,2 km/h (1 Bft) 95,74 %
15.02.2021 04:52 0,4 C 0,0 C -3,8 C 60 % 1028,5 hPa 0,0 l/m 0 min 0 min 0 W/m 3,2 km/h (1 Bft) 93,48 %
15.02.2021 04:54 0,4 C 0,0 C -3,8 C 60 % 1028,5 hPa 0,0 l/m 0 min 0 min 0 W/m 3,2 km/h (1 Bft) 97,87 %
15.02.2021 04:56 0,4 C 0,0 C -3,8 C 61 % 1028,5 hPa 0,0 l/m 0 min 0 min 0 W/m 6,4 km/h (2 Bft) 97,87 %
15.02.2021 04:58 0,4 C 0,0 C -3,8 C 60 % 1028,5 hPa 0,0 l/m 0 min 0 min 0 W/m 0,0 km/h (0 Bft) 95,74 %
15.02.2021 05:00 0,4 C 0,0 C -3,8 C 60 % 1028,5 hPa 0,0 l/m 0 min 0 min 0 W/m 6,4 km/h (2 Bft) 97,87 %
15.02.2021 05:02 0,4 C 0,0 C -3,8 C 60 % 1028,5 hPa 0,0 l/m 0 min 0 min 0 W/m 0,0 km/h (0 Bft) 97,92 %
15.02.2021 05:04 0,4 C 0,0 C -3,8 C 60 % 1028,4 hPa 0,0 l/m 0 min 0 min 0 W/m 6,4 km/h (2 Bft) 95,65 %
15.02.2021 05:06 0,4 C 0,0 C -3,8 C 60 % 1028,4 hPa 0,0 l/m 0 min 0 min 0 W/m 9,7 km/h (2 Bft) 97,87 %
15.02.2021 05:08 0,4 C 0,0 C -3,8 C 61 % 1028,3 hPa 0,0 l/m 0 min 0 min 0 W/m 0,0 km/h (0 Bft) 95,74 %
15.02.2021 05:10 0,4 C 0,0 C -3,8 C 60 % 1028,4 hPa 0,0 l/m 0 min 0 min 0 W/m 6,4 km/h (2 Bft) 97,87 %
15.02.2021 05:12 0,4 C 0,0 C -3,8 C 60 % 1028,4 hPa 0,0 l/m 0 min 0 min 0 W/m 3,2 km/h (1 Bft) 97,87 %
15.02.2021 05:14 0,4 C 0,0 C -3,8 C 60 % 1028,4 hPa 0,0 l/m 0 min 0 min 0 W/m 3,2 km/h (1 Bft) 95,65 %
15.02.2021 05:16 0,4 C 0,0 C -3,8 C 60 % 1028,4 hPa 0,0 l/m 0 min 0 min 0 W/m 6,4 km/h (2 Bft) 97,87 %
15.02.2021 05:18 0,4 C 0,0 C -3,8 C 60 % 1028,4 hPa 0,0 l/m 0 min 0 min 0 W/m 6,4 km/h (2 Bft) 97,87 %
15.02.2021 05:20 0,4 C 0,0 C -3,8 C 60 % 1028,4 hPa 0,0 l/m 0 min 0 min 0 W/m 12,9 km/h (3 Bft) 95,74 %
15.02.2021 05:22 0,4 C 0,0 C -3,8 C 60 % 1028,4 hPa 0,0 l/m 0 min 0 min 0 W/m 3,2 km/h (1 Bft) 97,87 %
15.02.2021 05:24 0,4 C 0,0 C -3,8 C 60 % 1028,4 hPa 0,0 l/m 0 min 0 min 0 W/m 6,4 km/h (2 Bft) 97,87 %
15.02.2021 05:26 0,4 C 0,0 C -3,8 C 60 % 1028,3 hPa 0,0 l/m 0 min 0 min 0 W/m 3,2 km/h (1 Bft) 97,83 %
15.02.2021 05:28 0,4 C 0,0 C -3,8 C 61 % 1028,3 hPa 0,0 l/m 0 min 0 min 0 W/m 3,2 km/h (1 Bft) 97,73 %
15.02.2021 05:30 0,4 C 0,0 C -3,8 C 60 % 1028,3 hPa 0,0 l/m 0 min 0 min 0 W/m 0,0 km/h (0 Bft) 95,74 %
15.02.2021 05:32 0,4 C 0,0 C -3,8 C 61 % 1028,3 hPa 0,0 l/m 0 min 0 min 0 W/m 0,0 km/h (0 Bft) 97,92 %
15.02.2021 05:34 0,4 C 0,0 C -3,8 C 61 % 1028,2 hPa 0,0 l/m 0 min 0 min 0 W/m 3,2 km/h (1 Bft) 100,00 %
15.02.2021 05:36 0,4 C 0,0 C -3,8 C 61 % 1028,3 hPa 0,0 l/m 0 min 0 min 0 W/m 3,2 km/h (1 Bft) 100,00 %
15.02.2021 05:38 0,4 C 0,0 C -3,8 C 61 % 1028,1 hPa 0,0 l/m 0 min 0 min 0 W/m 3,2 km/h (1 Bft) 97,83 %
15.02.2021 05:40 0,4 C 0,0 C -3,8 C 61 % 1028,1 hPa 0,0 l/m 0 min 0 min 0 W/m 0,0 km/h (0 Bft) 100,00 %
15.02.2021 05:42 0,4 C 0,0 C -3,8 C 61 % 1028,1 hPa 0,0 l/m 0 min 0 min 0 W/m 12,9 km/h (3 Bft) 100,00 %
15.02.2021 05:44 0,4 C 0,0 C -3,8 C 61 % 1028,0 hPa 0,0 l/m 0 min 0 min 0 W/m 3,2 km/h (1 Bft) 100,00 %
15.02.2021 05:46 0,4 C 0,0 C -3,8 C 61 % 1028,0 hPa 0,0 l/m 0 min 0 min 0 W/m 3,2 km/h (1 Bft) 100,00 %
15.02.2021 05:48 0,4 C 0,0 C -3,8 C 61 % 1028,0 hPa 0,0 l/m 0 min 0 min 0 W/m 6,4 km/h (2 Bft) 97,87 %
15.02.2021 05:50 0,4 C 0,0 C -3,8 C 61 % 1028,0 hPa 0,0 l/m 0 min 0 min 0 W/m 6,4 km/h (2 Bft) 100,00 %
15.02.2021 05:52 0,4 C 0,0 C -3,8 C 61 % 1028,0 hPa 0,0 l/m 0 min 0 min 0 W/m 3,2 km/h (1 Bft) 100,00 %
15.02.2021 05:54 0,4 C 0,0 C -3,8 C 61 % 1028,0 hPa 0,0 l/m 0 min 0 min 0 W/m 9,7 km/h (2 Bft) 100,00 %
15.02.2021 05:56 0,4 C 0,0 C -3,8 C 61 % 1028,0 hPa 0,0 l/m 0 min 0 min 0 W/m 3,2 km/h (1 Bft) 97,87 %
15.02.2021 05:58 0,4 C 0,0 C -3,8 C 61 % 1028,0 hPa 0,0 l/m 0 min 0 min 0 W/m 6,4 km/h (2 Bft) 97,87 %
15.02.2021 06:00 0,4 C 0,0 C -3,8 C 61 % 1028,0 hPa 0,0 l/m 0 min 0 min 0 W/m 3,2 km/h (1 Bft) 100,00 %
15.02.2021 06:02 0,4 C 0,0 C -3,8 C 61 % 1028,0 hPa 0,0 l/m 0 min 0 min 0 W/m 3,2 km/h (1 Bft) 97,83 %
15.02.2021 06:04 0,4 C 0,0 C -3,8 C 61 % 1028,0 hPa 0,0 l/m 0 min 0 min 0 W/m 6,4 km/h (2 Bft) 100,00 %
15.02.2021 06:08 0,4 C 0,0 C -3,8 C 61 % 1028,0 hPa 0,0 l/m 0 min 0 min 0 W/m 3,2 km/h (1 Bft) 98,95 %
15.02.2021 06:10 0,4 C 0,0 C -3,8 C 61 % 1027,9 hPa 0,0 l/m 0 min 0 min 0 W/m 6,4 km/h (2 Bft) 97,87 %
15.02.2021 06:12 0,4 C 0,0 C -3,8 C 61 % 1027,9 hPa 0,0 l/m 0 min 0 min 0 W/m 3,2 km/h (1 Bft) 97,87 %
15.02.2021 06:14 0,4 C 0,0 C -3,8 C 61 % 1027,8 hPa 0,0 l/m 0 min 0 min 0 W/m 6,4 km/h (2 Bft) 95,65 %
15.02.2021 06:16 0,4 C 0,0 C -3,8 C 61 % 1027,8 hPa 0,0 l/m 0 min 0 min 0 W/m 3,2 km/h (1 Bft) 97,87 %
15.02.2021 06:18 0,4 C 0,0 C -3,8 C 61 % 1027,8 hPa 0,0 l/m 0 min 0 min 0 W/m 0,0 km/h (0 Bft) 97,87 %
15.02.2021 06:20 0,4 C 0,0 C -3,8 C 62 % 1027,8 hPa 0,0 l/m 0 min 0 min 0 W/m 0,0 km/h (0 Bft) 97,87 %
15.02.2021 06:22 0,4 C 0,0 C -3,8 C 62 % 1027,8 hPa 0,0 l/m 0 min 0 min 0 W/m 3,2 km/h (1 Bft) 97,87 %
15.02.2021 06:24 0,4 C 0,0 C -3,8 C 62 % 1027,8 hPa 0,0 l/m 0 min 0 min 0 W/m 6,4 km/h (2 Bft) 97,83 %
15.02.2021 06:26 0,4 C 0,0 C -3,8 C 61 % 1027,7 hPa 0,0 l/m 0 min 0 min 0 W/m 12,9 km/h (3 Bft) 95,74 %
15.02.2021 06:28 0,4 C 0,0 C -3,8 C 61 % 1027,7 hPa 0,0 l/m 0 min 0 min 0 W/m 9,7 km/h (2 Bft) 97,87 %
15.02.2021 06:30 0,4 C 0,0 C -3,8 C 62 % 1027,7 hPa 0,0 l/m 0 min 0 min 0 W/m 0,0 km/h (0 Bft) 97,87 %
15.02.2021 06:32 0,4 C 0,0 C -3,8 C 62 % 1027,7 hPa 0,0 l/m 0 min 0 min 0 W/m 6,4 km/h (2 Bft) 97,87 %
15.02.2021 06:34 0,4 C 0,0 C -3,8 C 62 % 1027,7 hPa 0,0 l/m 0 min 0 min 0 W/m 6,4 km/h (2 Bft) 97,87 %
15.02.2021 06:36 0,5 C 0,0 C -3,8 C 62 % 1027,7 hPa 0,0 l/m 0 min 0 min 0 W/m 19,3 km/h (3 Bft) 93,62 %
15.02.2021 06:38 0,5 C 0,0 C -3,8 C 62 % 1027,6 hPa 0,0 l/m 0 min 0 min 0 W/m 0,0 km/h (0 Bft) 97,83 %
15.02.2021 06:40 0,5 C 0,0 C -3,8 C 62 % 1027,6 hPa 0,0 l/m 0 min 0 min 0 W/m 0,0 km/h (0 Bft) 97,87 %
15.02.2021 06:42 0,5 C 0,0 C -3,8 C 62 % 1027,6 hPa 0,0 l/m 0 min 0 min 0 W/m 0,0 km/h (0 Bft) 97,87 %
15.02.2021 06:44 0,5 C 0,0 C -3,8 C 62 % 1027,5 hPa 0,0 l/m 0 min 0 min 0 W/m 0,0 km/h (0 Bft) 95,74 %
15.02.2021 06:46 0,5 C 0,0 C -3,8 C 62 % 1027,5 hPa 0,0 l/m 0 min 0 min 0 W/m 3,2 km/h (1 Bft) 97,87 %
15.02.2021 06:48 0,5 C 0,0 C -3,8 C 62 % 1027,5 hPa 0,0 l/m 0 min 0 min 0 W/m 0,0 km/h (0 Bft) 95,74 %
15.02.2021 06:50 0,5 C 0,0 C -3,8 C 62 % 1027,5 hPa 0,0 l/m 0 min 0 min 0 W/m 3,2 km/h (1 Bft) 95,65 %
15.02.2021 06:52 0,5 C 0,0 C -3,8 C 62 % 1027,4 hPa 0,0 l/m 0 min 0 min 0 W/m 3,2 km/h (1 Bft) 100,00 %
15.02.2021 06:54 0,5 C 0,0 C -3,8 C 62 % 1027,4 hPa 0,0 l/m 0 min 0 min 0 W/m 3,2 km/h (1 Bft) 100,00 %
15.02.2021 06:56 0,5 C 0,0 C -3,8 C 62 % 1027,4 hPa 0,0 l/m 0 min 0 min 0 W/m 0,0 km/h (0 Bft) 97,87 %
15.02.2021 06:58 0,5 C 0,0 C -3,8 C 62 % 1027,4 hPa 0,0 l/m 0 min 0 min 0 W/m 16,1 km/h (3 Bft) 95,74 %
15.02.2021 07:00 0,5 C 0,0 C -3,8 C 63 % 1027,3 hPa 0,0 l/m 0 min 0 min 0 W/m 6,4 km/h (2 Bft) 95,74 %
15.02.2021 07:02 0,5 C 0,0 C -3,8 C 63 % 1027,3 hPa 0,0 l/m 0 min 0 min 0 W/m 6,4 km/h (2 Bft) 100,00 %
15.02.2021 07:04 0,5 C 0,0 C -3,8 C 63 % 1027,3 hPa 0,0 l/m 0 min 0 min 0 W/m 12,9 km/h (3 Bft) 97,87 %
15.02.2021 07:06 0,5 C 0,0 C -3,8 C 63 % 1027,3 hPa 0,0 l/m 0 min 0 min 0 W/m 3,2 km/h (1 Bft) 97,87 %
15.02.2021 07:08 0,5 C 0,0 C -3,8 C 63 % 1027,3 hPa 0,0 l/m 0 min 0 min 0 W/m 3,2 km/h (1 Bft) 97,87 %
15.02.2021 07:10 0,5 C 0,0 C -3,8 C 63 % 1027,2 hPa 0,0 l/m 0 min 0 min 0 W/m 0,0 km/h (0 Bft) 97,87 %
15.02.2021 07:12 0,5 C 0,0 C -3,8 C 63 % 1027,2 hPa 0,0 l/m 0 min 0 min 0 W/m 6,4 km/h (2 Bft) 97,83 %
15.02.2021 07:14 0,5 C 0,0 C -3,8 C 63 % 1027,2 hPa 0,0 l/m 0 min 0 min 0 W/m 0,0 km/h (0 Bft) 95,74 %
15.02.2021 07:16 0,5 C 0,0 C -3,8 C 63 % 1027,2 hPa 0,0 l/m 0 min 0 min 0 W/m 6,4 km/h (2 Bft) 95,74 %
15.02.2021 07:18 0,5 C 0,0 C -3,8 C 63 % 1027,3 hPa 0,0 l/m 0 min 0 min 0 W/m 0,0 km/h (0 Bft) 97,87 %
15.02.2021 07:20 0,5 C 0,0 C -3,8 C 63 % 1027,2 hPa 0,2 l/m 0 min 0 min 0 W/m 6,4 km/h (2 Bft) 97,87 %
15.02.2021 07:22 0,5 C 0,0 C -3,8 C 63 % 1027,2 hPa 0,0 l/m 0 min 0 min 0 W/m 3,2 km/h (1 Bft) 97,87 %
15.02.2021 07:24 0,5 C 0,0 C -3,8 C 63 % 1027,1 hPa 0,0 l/m 0 min 0 min 0 W/m 0,0 km/h (0 Bft) 97,83 %
15.02.2021 07:26 0,5 C 0,0 C -3,8 C 64 % 1027,0 hPa 0,0 l/m 0 min 0 min 0 W/m 0,0 km/h (0 Bft) 97,87 %
15.02.2021 07:28 0,5 C 0,0 C -3,8 C 63 % 1027,0 hPa 0,0 l/m 0 min 0 min 0 W/m 6,4 km/h (2 Bft) 97,87 %
15.02.2021 07:30 0,5 C 0,0 C -3,8 C 64 % 1027,0 hPa 0,0 l/m 0 min 0 min 0 W/m 3,2 km/h (1 Bft) 97,73 %
15.02.2021 07:32 0,5 C 0,0 C -3,8 C 64 % 1027,0 hPa 0,0 l/m 0 min 0 min 0 W/m 6,4 km/h (2 Bft) 97,87 %
15.02.2021 07:34 0,5 C 0,0 C -3,8 C 64 % 1027,0 hPa 0,0 l/m 0 min 0 min 0 W/m 3,2 km/h (1 Bft) 93,62 %
15.02.2021 07:36 0,5 C 0,0 C -3,8 C 64 % 1027,1 hPa 0,0 l/m 0 min 0 min 0 W/m 0,0 km/h (0 Bft) 96,00 %
15.02.2021 07:38 0,5 C 0,0 C -3,8 C 64 % 1027,1 hPa 0,0 l/m 0 min 0 min 0 W/m 3,2 km/h (1 Bft) 95,83 %
15.02.2021 07:40 0,5 C 0,0 C -3,8 C 64 % 1027,1 hPa 0,0 l/m 0 min 0 min 0 W/m 3,2 km/h (1 Bft) 97,87 %
15.02.2021 07:42 0,5 C 0,0 C -3,8 C 64 % 1027,1 hPa 0,0 l/m 0 min 0 min 0 W/m 3,2 km/h (1 Bft) 95,74 %
15.02.2021 07:44 0,5 C 0,0 C -3,8 C 64 % 1027,1 hPa 0,0 l/m 0 min 0 min 0 W/m 3,2 km/h (1 Bft) 97,87 %
15.02.2021 07:46 0,5 C 0,0 C -3,8 C 64 % 1027,0 hPa 0,0 l/m 0 min 0 min 0 W/m 3,2 km/h (1 Bft) 100,00 %
15.02.2021 07:48 0,5 C 0,0 C -3,8 C 64 % 1027,0 hPa 0,0 l/m 0 min 0 min 0 W/m 0,0 km/h (0 Bft) 95,74 %
15.02.2021 07:50 0,5 C 0,0 C -3,8 C 64 % 1027,0 hPa 0,0 l/m 0 min 0 min 0 W/m 6,4 km/h (2 Bft) 97,87 %
15.02.2021 07:52 0,5 C 0,0 C -3,8 C 64 % 1027,1 hPa 0,0 l/m 0 min 0 min 0 W/m 3,2 km/h (1 Bft) 100,00 %
15.02.2021 07:54 0,5 C 0,0 C -3,8 C 64 % 1027,0 hPa 0,0 l/m 0 min 0 min 0 W/m 6,4 km/h (2 Bft) 100,00 %
15.02.2021 07:56 0,5 C 0,0 C -3,8 C 64 % 1027,0 hPa 0,0 l/m 0 min 0 min 0 W/m 6,4 km/h (2 Bft) 100,00 %
15.02.2021 07:58 0,5 C 0,0 C -3,8 C 64 % 1027,0 hPa 0,0 l/m 0 min 0 min 0 W/m 6,4 km/h (2 Bft) 97,83 %
15.02.2021 08:00 0,5 C 0,0 C -3,8 C 64 % 1026,9 hPa 0,0 l/m 0 min 0 min 0 W/m 3,2 km/h (1 Bft) 97,87 %
15.02.2021 08:02 0,5 C 0,0 C -3,8 C 65 % 1026,9 hPa 0,0 l/m 0 min 0 min 0 W/m 3,2 km/h (1 Bft) 97,87 %
15.02.2021 08:04 0,5 C 0,0 C -3,8 C 64 % 1026,8 hPa 0,0 l/m 0 min 0 min 0 W/m 3,2 km/h (1 Bft) 100,00 %
15.02.2021 08:06 0,5 C 0,0 C -3,8 C 64 % 1026,8 hPa 0,0 l/m 0 min 0 min 1 W/m 0,0 km/h (0 Bft) 95,74 %
15.02.2021 08:08 0,5 C 0,0 C -3,8 C 64 % 1026,8 hPa 0,0 l/m 0 min 0 min 5 W/m 3,2 km/h (1 Bft) 100,00 %
15.02.2021 08:10 0,5 C 0,0 C -3,8 C 65 % 1026,6 hPa 0,0 l/m 0 min 0 min 5 W/m 3,2 km/h (1 Bft) 100,00 %
15.02.2021 08:12 0,6 C 0,0 C -3,8 C 65 % 1026,7 hPa 0,0 l/m 0 min 0 min 5 W/m 0,0 km/h (0 Bft) 97,87 %
15.02.2021 08:14 0,5 C 0,0 C -3,8 C 64 % 1026,7 hPa 0,0 l/m 0 min 0 min 6 W/m 3,2 km/h (1 Bft) 97,87 %
15.02.2021 08:16 0,6 C 0,0 C -3,8 C 65 % 1026,6 hPa 0,0 l/m 0 min 0 min 7 W/m 9,7 km/h (2 Bft) 97,87 %
15.02.2021 08:18 0,6 C 0,0 C -3,8 C 65 % 1026,7 hPa 0,0 l/m 0 min 0 min 8 W/m 3,2 km/h (1 Bft) 97,87 %
15.02.2021 08:20 0,6 C 0,0 C -3,8 C 65 % 1026,6 hPa 0,0 l/m 0 min 0 min 9 W/m 0,0 km/h (0 Bft) 100,00 %
15.02.2021 08:22 0,6 C 0,0 C -3,8 C 65 % 1026,5 hPa 0,0 l/m 0 min 0 min 11 W/m 0,0 km/h (0 Bft) 100,00 %
15.02.2021 08:24 0,6 C 0,0 C -3,8 C 65 % 1026,6 hPa 0,0 l/m 0 min 0 min 11 W/m 6,4 km/h (2 Bft) 100,00 %
15.02.2021 08:26 0,6 C 0,0 C -3,8 C 65 % 1026,7 hPa 0,0 l/m 0 min 0 min 12 W/m 0,0 km/h (0 Bft) 97,87 %
15.02.2021 08:28 0,6 C 0,0 C -3,8 C 65 % 1026,7 hPa 0,0 l/m 0 min 0 min 12 W/m 6,4 km/h (2 Bft) 97,87 %
15.02.2021 08:30 0,6 C 0,0 C -3,8 C 65 % 1026,7 hPa 0,0 l/m 0 min 0 min 13 W/m 3,2 km/h (1 Bft) 97,87 %
15.02.2021 08:32 0,6 C 0,0 C -3,8 C 65 % 1026,7 hPa 0,0 l/m 0 min 0 min 14 W/m 3,2 km/h (1 Bft) 93,62 %
15.02.2021 08:34 0,6 C 0,0 C -3,3 C 65 % 1026,7 hPa 0,0 l/m 0 min 0 min 15 W/m 6,4 km/h (2 Bft) 93,48 %
15.02.2021 08:36 0,6 C 0,0 C -3,3 C 65 % 1026,7 hPa 0,0 l/m 0 min 0 min 16 W/m 3,2 km/h (1 Bft) 97,87 %
15.02.2021 08:38 0,6 C 0,6 C -3,3 C 65 % 1026,6 hPa 0,0 l/m 0 min 0 min 17 W/m 3,2 km/h (1 Bft) 100,00 %
15.02.2021 08:40 0,6 C 0,6 C -3,3 C 65 % 1026,7 hPa 0,0 l/m 0 min 0 min 18 W/m 6,4 km/h (2 Bft) 95,74 %
15.02.2021 08:42 0,7 C 0,6 C -3,3 C 65 % 1026,6 hPa 0,0 l/m 0 min 0 min 19 W/m 22,5 km/h (4 Bft) 97,87 %
15.02.2021 08:44 0,7 C 0,6 C -3,3 C 65 % 1026,6 hPa 0,0 l/m 0 min 0 min 19 W/m 3,2 km/h (1 Bft) 93,62 %
15.02.2021 08:46 0,7 C 0,6 C -3,3 C 65 % 1026,7 hPa 0,0 l/m 0 min 0 min 20 W/m 0,0 km/h (0 Bft) 95,65 %
15.02.2021 08:48 0,7 C 0,6 C -3,3 C 65 % 1026,6 hPa 0,0 l/m 0 min 0 min 21 W/m 3,2 km/h (1 Bft) 95,74 %
15.02.2021 08:50 0,8 C 0,6 C -3,3 C 65 % 1026,6 hPa 0,0 l/m 0 min 0 min 23 W/m 6,4 km/h (2 Bft) 95,74 %
15.02.2021 08:52 0,8 C 0,6 C -3,3 C 65 % 1026,6 hPa 0,0 l/m 0 min 0 min 23 W/m 3,2 km/h (1 Bft) 95,74 %
15.02.2021 08:54 0,8 C 0,6 C -3,3 C 66 % 1026,5 hPa 0,0 l/m 0 min 0 min 25 W/m 16,1 km/h (3 Bft) 93,62 %
15.02.2021 08:56 0,8 C 0,6 C -3,3 C 65 % 1026,5 hPa 0,0 l/m 0 min 0 min 26 W/m 0,0 km/h (0 Bft) 93,62 %
15.02.2021 08:58 0,8 C 0,6 C -3,3 C 66 % 1026,5 hPa 0,0 l/m 0 min 0 min 26 W/m 0,0 km/h (0 Bft) 93,48 %
15.02.2021 09:00 0,8 C 0,6 C -3,3 C 66 % 1026,5 hPa 0,0 l/m 0 min 0 min 28 W/m 0,0 km/h (0 Bft) 93,62 %
15.02.2021 09:02 0,8 C 0,6 C -3,3 C 66 % 1026,4 hPa 0,0 l/m 0 min 0 min 30 W/m 0,0 km/h (0 Bft) 95,74 %
15.02.2021 09:04 0,8 C 0,6 C -3,3 C 66 % 1026,5 hPa 0,0 l/m 0 min 0 min 30 W/m 6,4 km/h (2 Bft) 97,87 %
15.02.2021 09:06 0,8 C 0,6 C -3,3 C 66 % 1026,5 hPa 0,0 l/m 0 min 0 min 31 W/m 3,2 km/h (1 Bft) 95,92 %
15.02.2021 09:08 0,8 C 0,6 C -3,3 C 66 % 1026,6 hPa 0,0 l/m 0 min 0 min 32 W/m 6,4 km/h (2 Bft) 95,65 %
15.02.2021 09:10 0,8 C 0,6 C -3,3 C 66 % 1026,6 hPa 0,0 l/m 0 min 0 min 34 W/m 0,0 km/h (0 Bft) 95,74 %
15.02.2021 09:12 0,8 C 0,6 C -3,3 C 66 % 1026,5 hPa 0,0 l/m 0 min 0 min 37 W/m 3,2 km/h (1 Bft) 95,74 %
15.02.2021 09:14 0,9 C 0,6 C -3,3 C 66 % 1026,4 hPa 0,0 l/m 0 min 0 min 40 W/m 0,0 km/h (0 Bft) 95,74 %
15.02.2021 09:16 0,9 C 0,6 C -3,3 C 66 % 1026,4 hPa 0,0 l/m 0 min 0 min 41 W/m 3,2 km/h (1 Bft) 95,74 %
15.02.2021 09:18 0,8 C 0,6 C -3,3 C 66 % 1026,4 hPa 0,0 l/m 0 min 0 min 40 W/m 3,2 km/h (1 Bft) 95,74 %
15.02.2021 09:20 0,9 C 0,6 C -3,3 C 66 % 1026,5 hPa 0,0 l/m 0 min 0 min 38 W/m 0,0 km/h (0 Bft) 86,96 %
15.02.2021 09:22 0,9 C 0,6 C -3,3 C 66 % 1026,5 hPa 0,0 l/m 0 min 0 min 35 W/m 0,0 km/h (0 Bft) 93,62 %
15.02.2021 09:24 0,9 C 0,6 C -3,3 C 67 % 1026,5 hPa 0,0 l/m 0 min 0 min 35 W/m 0,0 km/h (0 Bft) 95,74 %
15.02.2021 09:26 0,9 C 0,6 C -3,3 C 67 % 1026,5 hPa 0,0 l/m 0 min 0 min 36 W/m 0,0 km/h (0 Bft) 95,74 %
15.02.2021 09:28 0,9 C 0,6 C -3,3 C 67 % 1026,4 hPa 0,0 l/m 0 min 0 min 39 W/m 0,0 km/h (0 Bft) 97,87 %
15.02.2021 09:30 0,9 C 0,6 C -3,3 C 67 % 1026,3 hPa 0,0 l/m 0 min 0 min 42 W/m 3,2 km/h (1 Bft) 97,87 %
15.02.2021 09:32 0,9 C 0,6 C -3,3 C 67 % 1026,3 hPa 0,0 l/m 0 min 0 min 44 W/m 3,2 km/h (1 Bft) 95,74 %
15.02.2021 09:34 0,9 C 0,6 C -3,3 C 67 % 1026,2 hPa 0,0 l/m 0 min 0 min 47 W/m 3,2 km/h (1 Bft) 97,87 %
15.02.2021 09:36 0,9 C 0,6 C -3,3 C 67 % 1026,2 hPa 0,0 l/m 0 min 0 min 49 W/m 0,0 km/h (0 Bft) 100,00 %
15.02.2021 09:38 1,0 C 0,6 C -3,3 C 67 % 1026,0 hPa 0,0 l/m 0 min 0 min 51 W/m 3,2 km/h (1 Bft) 95,74 %
15.02.2021 09:40 1,0 C 0,6 C -3,3 C 67 % 1026,0 hPa 0,0 l/m 0 min 0 min 52 W/m 6,4 km/h (2 Bft) 97,87 %
15.02.2021 09:42 1,0 C 0,6 C -2,7 C 67 % 1026,0 hPa 0,0 l/m 0 min 0 min 54 W/m 3,2 km/h (1 Bft) 100,00 %
15.02.2021 09:44 1,0 C 0,6 C -2,7 C 67 % 1026,1 hPa 0,0 l/m 0 min 0 min 54 W/m 6,4 km/h (2 Bft) 100,00 %
15.02.2021 09:46 1,0 C 1,1 C -2,7 C 67 % 1026,0 hPa 0,0 l/m 0 min 0 min 53 W/m 3,2 km/h (1 Bft) 100,00 %
15.02.2021 09:48 1,1 C 1,1 C -2,7 C 67 % 1026,0 hPa 0,0 l/m 0 min 0 min 53 W/m 6,4 km/h (2 Bft) 100,00 %
15.02.2021 09:50 1,1 C 1,1 C -2,7 C 67 % 1026,0 hPa 0,0 l/m 0 min 0 min 53 W/m 3,2 km/h (1 Bft) 93,62 %
15.02.2021 09:52 1,1 C 1,1 C -2,7 C 68 % 1026,1 hPa 0,0 l/m 0 min 0 min 54 W/m 3,2 km/h (1 Bft) 97,87 %
15.02.2021 09:54 1,1 C 1,1 C -2,7 C 68 % 1026,1 hPa 0,0 l/m 0 min 0 min 53 W/m 3,2 km/h (1 Bft) 97,87 %
15.02.2021 09:56 1,1 C 1,1 C -2,7 C 67 % 1025,9 hPa 0,0 l/m 0 min 0 min 56 W/m 3,2 km/h (1 Bft) 97,83 %
15.02.2021 09:58 1,2 C 1,1 C -2,7 C 68 % 1025,9 hPa 0,0 l/m 0 min 0 min 63 W/m 6,4 km/h (2 Bft) 97,87 %
15.02.2021 10:00 1,2 C 1,1 C -2,7 C 68 % 1025,8 hPa 0,0 l/m 0 min 0 min 68 W/m 6,4 km/h (2 Bft) 97,87 %
15.02.2021 10:02 1,3 C 1,1 C -2,7 C 68 % 1025,7 hPa 0,0 l/m 0 min 0 min 74 W/m 3,2 km/h (1 Bft) 97,87 %
15.02.2021 10:04 1,3 C 1,1 C -2,7 C 68 % 1025,7 hPa 0,0 l/m 0 min 0 min 74 W/m 6,4 km/h (2 Bft) 97,87 %
15.02.2021 10:06 1,3 C 1,1 C -2,7 C 68 % 1025,6 hPa 0,0 l/m 0 min 0 min 70 W/m 3,2 km/h (1 Bft) 95,74 %
15.02.2021 10:08 1,4 C 1,1 C -2,7 C 67 % 1025,6 hPa 0,0 l/m 0 min 0 min 72 W/m 3,2 km/h (1 Bft) 95,65 %
15.02.2021 10:10 1,4 C 1,1 C -2,7 C 68 % 1025,7 hPa 0,0 l/m 0 min 0 min 63 W/m 6,4 km/h (2 Bft) 97,87 %
15.02.2021 10:12 1,4 C 1,1 C -2,7 C 68 % 1025,7 hPa 0,0 l/m 0 min 0 min 62 W/m 0,0 km/h (0 Bft) 95,74 %
15.02.2021 10:14 1,4 C 1,1 C -2,7 C 68 % 1025,6 hPa 0,0 l/m 0 min 0 min 52 W/m 6,4 km/h (2 Bft) 97,87 %
15.02.2021 10:16 1,4 C 1,1 C -2,7 C 68 % 1025,7 hPa 0,0 l/m 0 min 0 min 45 W/m 16,1 km/h (3 Bft) 97,87 %
15.02.2021 10:18 1,4 C 1,1 C -2,7 C 68 % 1025,7 hPa 0,0 l/m 0 min 0 min 48 W/m 3,2 km/h (1 Bft) 95,74 %
15.02.2021 10:20 1,4 C 1,1 C -2,7 C 68 % 1025,8 hPa 0,0 l/m 0 min 0 min 52 W/m 3,2 km/h (1 Bft) 97,83 %
15.02.2021 10:22 1,5 C 1,1 C -2,7 C 68 % 1025,8 hPa 0,0 l/m 0 min 0 min 52 W/m 6,4 km/h (2 Bft) 97,87 %
15.02.2021 10:24 1,5 C 1,1 C -2,7 C 68 % 1025,9 hPa 0,0 l/m 0 min 0 min 49 W/m 6,4 km/h (2 Bft) 97,87 %
15.02.2021 10:26 1,5 C 1,1 C -2,7 C 68 % 1025,8 hPa 0,0 l/m 0 min 0 min 47 W/m 3,2 km/h (1 Bft) 91,49 %
15.02.2021 10:28 1,5 C 1,1 C -2,7 C 68 % 1025,9 hPa 0,0 l/m 0 min 0 min 47 W/m 3,2 km/h (1 Bft) 97,87 %
15.02.2021 10:30 1,5 C 1,1 C -2,2 C 69 % 1025,8 hPa 0,0 l/m 0 min 0 min 46 W/m 0,0 km/h (0 Bft) 97,83 %
15.02.2021 10:32 1,5 C 1,1 C -2,2 C 69 % 1025,8 hPa 0,0 l/m 0 min 0 min 45 W/m 0,0 km/h (0 Bft) 97,87 %
15.02.2021 10:34 1,5 C 1,1 C -2,2 C 69 % 1025,8 hPa 0,0 l/m 0 min 0 min 48 W/m 3,2 km/h (1 Bft) 97,87 %
15.02.2021 10:36 1,6 C 1,1 C -2,2 C 69 % 1025,8 hPa 0,0 l/m 0 min 0 min 53 W/m 0,0 km/h (0 Bft) 100,00 %
15.02.2021 10:38 1,6 C 1,7 C -2,2 C 69 % 1025,8 hPa 0,0 l/m 0 min 0 min 51 W/m 0,0 km/h (0 Bft) 100,00 %
15.02.2021 10:40 1,6 C 1,7 C -2,2 C 69 % 1025,8 hPa 0,0 l/m 0 min 0 min 47 W/m 3,2 km/h (1 Bft) 100,00 %
15.02.2021 10:42 1,6 C 1,7 C -2,2 C 69 % 1025,8 hPa 0,0 l/m 0 min 0 min 49 W/m 3,2 km/h (1 Bft) 97,83 %
15.02.2021 10:44 1,6 C 1,7 C -2,2 C 69 % 1025,7 hPa 0,0 l/m 0 min 0 min 51 W/m 0,0 km/h (0 Bft) 100,00 %
15.02.2021 10:46 1,6 C 1,7 C -2,2 C 69 % 1025,7 hPa 0,0 l/m 0 min 0 min 55 W/m 3,2 km/h (1 Bft) 100,00 %
15.02.2021 10:48 1,7 C 1,7 C -2,2 C 69 % 1025,7 hPa 0,0 l/m 0 min 0 min 57 W/m 3,2 km/h (1 Bft) 100,00 %
15.02.2021 10:50 1,7 C 1,7 C -2,2 C 70 % 1025,5 hPa 0,0 l/m 0 min 0 min 65 W/m 3,2 km/h (1 Bft) 97,87 %
15.02.2021 10:52 1,7 C 1,1 C -2,2 C 70 % 1025,5 hPa 0,0 l/m 0 min 0 min 68 W/m 0,0 km/h (0 Bft) 100,00 %
15.02.2021 10:54 1,8 C 1,1 C -2,2 C 70 % 1025,5 hPa 0,0 l/m 0 min 0 min 63 W/m 3,2 km/h (1 Bft) 100,00 %
15.02.2021 10:56 1,8 C 1,1 C -2,2 C 71 % 1025,6 hPa 0,0 l/m 0 min 0 min 54 W/m 3,2 km/h (1 Bft) 100,00 %
15.02.2021 10:58 1,8 C 1,1 C -2,2 C 71 % 1025,6 hPa 0,0 l/m 0 min 0 min 48 W/m 3,2 km/h (1 Bft) 100,00 %
15.02.2021 11:00 1,7 C 1,1 C -2,7 C 71 % 1025,6 hPa 0,0 l/m 0 min 0 min 47 W/m 0,0 km/h (0 Bft) 100,00 %
15.02.2021 11:02 1,8 C 1,1 C -2,2 C 71 % 1025,6 hPa 0,0 l/m 0 min 0 min 49 W/m 0,0 km/h (0 Bft) 100,00 %
15.02.2021 11:04 1,8 C 1,1 C -2,2 C 71 % 1025,5 hPa 0,0 l/m 0 min 0 min 55 W/m 0,0 km/h (0 Bft) 100,00 %
15.02.2021 11:06 1,8 C 1,1 C -2,2 C 71 % 1025,4 hPa 0,0 l/m 0 min 2 min 62 W/m 0,0 km/h (0 Bft) 100,00 %
15.02.2021 11:08 1,8 C 1,1 C -2,2 C 72 % 1025,4 hPa 0,0 l/m 0 min 0 min 64 W/m 3,2 km/h (1 Bft) 100,00 %
15.02.2021 11:10 1,8 C 1,1 C -2,7 C 72 % 1025,4 hPa 0,0 l/m 0 min 2 min 74 W/m 3,2 km/h (1 Bft) 95,74 %
15.02.2021 11:12 1,8 C 0,6 C -3,3 C 72 % 1025,4 hPa 0,0 l/m 0 min 2 min 79 W/m 6,4 km/h (2 Bft) 97,87 %
15.02.2021 11:14 1,8 C 0,6 C -3,3 C 73 % 1025,4 hPa 0,0 l/m 0 min 2 min 77 W/m 6,4 km/h (2 Bft) 100,00 %
15.02.2021 11:16 1,8 C 0,6 C -3,3 C 74 % 1025,4 hPa 0,0 l/m 0 min 2 min 84 W/m 0,0 km/h (0 Bft) 100,00 %
15.02.2021 11:18 1,8 C 0,6 C -3,3 C 74 % 1025,4 hPa 0,0 l/m 0 min 2 min 92 W/m 3,2 km/h (1 Bft) 97,87 %
15.02.2021 11:20 1,8 C 0,6 C -3,3 C 75 % 1025,5 hPa 0,0 l/m 0 min 2 min 96 W/m 6,4 km/h (2 Bft) 100,00 %
15.02.2021 11:22 1,8 C 0,0 C -3,3 C 74 % 1025,5 hPa 0,0 l/m 0 min 2 min 89 W/m 3,2 km/h (1 Bft) 100,00 %
15.02.2021 11:24 1,8 C 0,0 C -3,3 C 75 % 1025,5 hPa 0,0 l/m 0 min 2 min 78 W/m 0,0 km/h (0 Bft) 97,87 %
15.02.2021 11:26 1,8 C 0,0 C -3,8 C 75 % 1025,4 hPa 0,0 l/m 0 min 2 min 67 W/m 3,2 km/h (1 Bft) 95,74 %
15.02.2021 11:28 1,8 C 0,0 C -3,8 C 75 % 1025,3 hPa 0,0 l/m 0 min 2 min 62 W/m 6,4 km/h (2 Bft) 95,74 %
15.02.2021 11:30 1,8 C 0,0 C -3,3 C 75 % 1025,3 hPa 0,0 l/m 0 min 0 min 64 W/m 3,2 km/h (1 Bft) 95,74 %
15.02.2021 11:32 1,8 C 0,0 C -3,3 C 76 % 1025,3 hPa 0,0 l/m 0 min 0 min 70 W/m 3,2 km/h (1 Bft) 97,83 %
15.02.2021 11:34 1,8 C 0,6 C -3,3 C 76 % 1025,3 hPa 0,0 l/m 0 min 0 min 75 W/m 0,0 km/h (0 Bft) 97,87 %
15.02.2021 11:36 1,8 C 0,6 C -3,3 C 76 % 1025,3 hPa 0,0 l/m 0 min 0 min 80 W/m 3,2 km/h (1 Bft) 97,87 %
15.02.2021 11:38 1,8 C 0,6 C -3,3 C 76 % 1025,3 hPa 0,0 l/m 0 min 0 min 84 W/m 6,4 km/h (2 Bft) 97,87 %
15.02.2021 11:40 1,8 C 0,6 C -3,3 C 76 % 1025,4 hPa 0,0 l/m 0 min 0 min 77 W/m 3,2 km/h (1 Bft) 97,87 %
15.02.2021 11:42 1,8 C 0,6 C -2,7 C 76 % 1025,4 hPa 0,0 l/m 0 min 0 min 66 W/m 0,0 km/h (0 Bft) 97,87 %
15.02.2021 11:44 1,8 C 0,6 C -2,7 C 76 % 1025,4 hPa 0,0 l/m 0 min 0 min 63 W/m 0,0 km/h (0 Bft) 95,65 %
15.02.2021 11:46 1,8 C 0,6 C -2,7 C 76 % 1025,6 hPa 0,0 l/m 0 min 0 min 68 W/m 0,0 km/h (0 Bft) 95,74 %
15.02.2021 11:48 1,9 C 1,1 C -2,7 C 76 % 1025,6 hPa 0,0 l/m 0 min 0 min 81 W/m 3,2 km/h (1 Bft) 95,74 %
15.02.2021 11:50 1,9 C 1,1 C -2,7 C 76 % 1025,6 hPa 0,0 l/m 0 min 0 min 97 W/m 0,0 km/h (0 Bft) 97,87 %
15.02.2021 11:52 1,9 C 1,1 C -2,2 C 77 % 1025,7 hPa 0,0 l/m 0 min 0 min 107 W/m 0,0 km/h (0 Bft) 97,87 %
15.02.2021 11:54 1,9 C 1,1 C -2,2 C 77 % 1025,7 hPa 0,0 l/m 0 min 2 min 116 W/m 0,0 km/h (0 Bft) 95,74 %
15.02.2021 11:56 1,9 C 1,1 C -2,7 C 77 % 1025,6 hPa 0,0 l/m 0 min 0 min 111 W/m 0,0 km/h (0 Bft) 97,83 %
15.02.2021 11:58 1,9 C 1,1 C -2,7 C 77 % 1025,7 hPa 0,0 l/m 0 min 0 min 106 W/m 0,0 km/h (0 Bft) 95,74 %
15.02.2021 12:00 2,0 C 1,1 C -2,7 C 78 % 1025,6 hPa 0,0 l/m 0 min 2 min 116 W/m 6,4 km/h (2 Bft) 97,87 %
15.02.2021 12:02 2,0 C 1,1 C -2,7 C 78 % 1025,6 hPa 0,0 l/m 0 min 2 min 114 W/m 3,2 km/h (1 Bft) 100,00 %
15.02.2021 12:04 2,0 C 1,1 C -2,7 C 78 % 1025,6 hPa 0,0 l/m 0 min 2 min 114 W/m 12,9 km/h (3 Bft) 100,00 %
15.02.2021 12:08 2,0 C 1,1 C -2,7 C 79 % 1025,5 hPa 0,0 l/m 0 min 0 min 126 W/m 3,2 km/h (1 Bft) 100,00 %
15.02.2021 12:10 2,0 C 1,1 C -2,7 C 80 % 1025,6 hPa 0,0 l/m 0 min 0 min 136 W/m 0,0 km/h (0 Bft) 97,87 %
15.02.2021 12:12 2,0 C 1,7 C -2,7 C 80 % 1025,5 hPa 0,0 l/m 0 min 0 min 121 W/m 0,0 km/h (0 Bft) 97,87 %
15.02.2021 12:14 2,0 C 1,7 C -2,7 C 80 % 1025,5 hPa 0,0 l/m 0 min 0 min 116 W/m 3,2 km/h (1 Bft) 100,00 %
15.02.2021 12:16 2,0 C 1,7 C -2,2 C 80 % 1025,4 hPa 0,0 l/m 0 min 0 min 101 W/m 3,2 km/h (1 Bft) 100,00 %
15.02.2021 12:18 2,0 C 1,7 C -2,7 C 80 % 1025,4 hPa 0,0 l/m 0 min 0 min 83 W/m 3,2 km/h (1 Bft) 100,00 %
15.02.2021 12:20 2,0 C 1,1 C -2,7 C 81 % 1025,4 hPa 0,0 l/m 0 min 0 min 77 W/m 3,2 km/h (1 Bft) 100,00 %
15.02.2021 12:22 2,0 C 1,1 C -2,7 C 81 % 1025,4 hPa 0,2 l/m 0 min 2 min 83 W/m 6,4 km/h (2 Bft) 97,87 %
15.02.2021 12:24 2,0 C 0,6 C -2,7 C 81 % 1025,3 hPa 0,0 l/m 0 min 2 min 73 W/m 3,2 km/h (1 Bft) 97,87 %
15.02.2021 12:26 2,0 C 0,6 C -2,7 C 81 % 1025,4 hPa 0,0 l/m 0 min 2 min 62 W/m 3,2 km/h (1 Bft) 95,74 %
15.02.2021 12:28 2,0 C 0,6 C -3,3 C 82 % 1025,4 hPa 0,0 l/m 0 min 2 min 58 W/m 3,2 km/h (1 Bft) 95,74 %
15.02.2021 12:30 1,9 C 0,6 C -3,3 C 82 % 1025,5 hPa 0,0 l/m 0 min 2 min 52 W/m 0,0 km/h (0 Bft) 100,00 %
15.02.2021 12:32 2,0 C 0,6 C -3,3 C 82 % 1025,4 hPa 0,0 l/m 0 min 2 min 42 W/m 16,1 km/h (3 Bft) 97,83 %
15.02.2021 12:34 1,9 C 0,0 C -3,3 C 82 % 1025,4 hPa 0,0 l/m 0 min 2 min 35 W/m 0,0 km/h (0 Bft) 97,87 %
15.02.2021 12:36 1,9 C 0,0 C -3,3 C 83 % 1025,3 hPa 0,2 l/m 0 min 2 min 35 W/m 3,2 km/h (1 Bft) 97,87 %
15.02.2021 12:38 1,9 C 0,0 C -3,3 C 83 % 1025,3 hPa 0,0 l/m 0 min 2 min 33 W/m 6,4 km/h (2 Bft) 97,87 %
15.02.2021 12:40 1,8 C 0,0 C -3,3 C 84 % 1025,3 hPa 0,0 l/m 0 min 2 min 33 W/m 0,0 km/h (0 Bft) 97,87 %
15.02.2021 12:42 1,8 C 0,0 C -3,3 C 84 % 1025,3 hPa 0,2 l/m 0 min 2 min 33 W/m 0,0 km/h (0 Bft) 95,74 %
15.02.2021 12:44 1,7 C 0,0 C -3,8 C 85 % 1025,2 hPa 0,0 l/m 0 min 2 min 28 W/m 9,7 km/h (2 Bft) 97,83 %
15.02.2021 12:46 1,6 C 0,0 C -3,8 C 85 % 1025,1 hPa 0,0 l/m 0 min 2 min 28 W/m 3,2 km/h (1 Bft) 97,87 %
15.02.2021 12:48 1,6 C 0,0 C -3,3 C 86 % 1025,2 hPa 0,0 l/m 0 min 2 min 30 W/m 3,2 km/h (1 Bft) 95,74 %
15.02.2021 12:50 1,5 C 0,0 C -3,3 C 86 % 1025,1 hPa 0,2 l/m 0 min 2 min 32 W/m 0,0 km/h (0 Bft) 95,74 %
15.02.2021 12:52 1,5 C 0,0 C -3,3 C 86 % 1025,1 hPa 0,0 l/m 0 min 2 min 35 W/m 3,2 km/h (1 Bft) 95,74 %
15.02.2021 12:54 1,5 C 0,0 C -3,3 C 87 % 1025,1 hPa 0,2 l/m 0 min 2 min 36 W/m 9,7 km/h (2 Bft) 95,65 %
15.02.2021 12:56 1,4 C 0,0 C -3,3 C 87 % 1025,0 hPa 0,0 l/m 0 min 2 min 34 W/m 0,0 km/h (0 Bft) 95,74 %
15.02.2021 12:58 1,4 C 0,0 C -3,3 C 87 % 1024,9 hPa 0,2 l/m 0 min 2 min 33 W/m 0,0 km/h (0 Bft) 97,87 %
15.02.2021 13:00 1,4 C 0,0 C -3,3 C 88 % 1024,9 hPa 0,2 l/m 0 min 2 min 36 W/m 0,0 km/h (0 Bft) 95,74 %
15.02.2021 13:02 1,4 C 0,0 C -3,3 C 88 % 1024,8 hPa 0,0 l/m 0 min 2 min 49 W/m 0,0 km/h (0 Bft) 95,74 %
15.02.2021 13:04 1,3 C 0,0 C -3,3 C 88 % 1024,8 hPa 0,0 l/m 0 min 2 min 60 W/m 0,0 km/h (0 Bft) 89,36 %
15.02.2021 13:06 1,3 C 0,0 C -3,3 C 89 % 1024,8 hPa 0,2 l/m 0 min 2 min 67 W/m 0,0 km/h (0 Bft) 95,65 %
15.02.2021 13:08 1,3 C 0,0 C -3,3 C 89 % 1024,7 hPa 0,0 l/m 0 min 2 min 72 W/m 0,0 km/h (0 Bft) 95,74 %
15.02.2021 13:10 1,3 C 0,0 C -3,3 C 89 % 1024,7 hPa 0,0 l/m 0 min 2 min 70 W/m 3,2 km/h (1 Bft) 95,74 %
15.02.2021 13:12 1,3 C 0,0 C -3,3 C 89 % 1024,6 hPa 0,0 l/m 0 min 2 min 69 W/m 3,2 km/h (1 Bft) 95,74 %
15.02.2021 13:14 1,3 C 0,0 C -3,3 C 90 % 1024,5 hPa 0,0 l/m 0 min 2 min 72 W/m 0,0 km/h (0 Bft) 95,74 %
15.02.2021 13:16 1,3 C 0,0 C -3,3 C 90 % 1024,4 hPa 0,0 l/m 0 min 0 min 76 W/m 3,2 km/h (1 Bft) 95,74 %
15.02.2021 13:18 1,3 C 0,0 C -3,3 C 90 % 1024,2 hPa 0,0 l/m 0 min 0 min 77 W/m 0,0 km/h (0 Bft) 93,48 %
15.02.2021 13:20 1,3 C 0,6 C -2,7 C 90 % 1024,2 hPa 0,0 l/m 0 min 0 min 83 W/m 0,0 km/h (0 Bft) 95,74 %
15.02.2021 13:22 1,3 C 0,6 C -2,7 C 91 % 1024,1 hPa 0,2 l/m 0 min 0 min 86 W/m 0,0 km/h (0 Bft) 91,49 %
15.02.2021 13:24 1,3 C 0,6 C -2,7 C 91 % 1024,0 hPa 0,0 l/m 0 min 0 min 92 W/m 0,0 km/h (0 Bft) 95,74 %
15.02.2021 13:26 1,3 C 0,6 C -2,7 C 91 % 1024,0 hPa 0,0 l/m 0 min 0 min 105 W/m 3,2 km/h (1 Bft) 95,74 %
15.02.2021 13:28 1,3 C 0,6 C -2,7 C 91 % 1023,9 hPa 0,0 l/m 0 min 0 min 114 W/m 0,0 km/h (0 Bft) 93,62 %
15.02.2021 13:30 1,3 C 0,6 C -2,7 C 91 % 1023,9 hPa 0,0 l/m 0 min 0 min 110 W/m 0,0 km/h (0 Bft) 91,30 %
15.02.2021 13:32 1,4 C 0,6 C -2,7 C 91 % 1023,9 hPa 0,0 l/m 0 min 0 min 107 W/m 3,2 km/h (1 Bft) 95,74 %
15.02.2021 13:34 1,4 C 0,6 C -2,7 C 91 % 1023,7 hPa 0,0 l/m 0 min 0 min 118 W/m 0,0 km/h (0 Bft) 95,74 %
15.02.2021 13:36 1,4 C 0,6 C -2,7 C 92 % 1023,5 hPa 0,0 l/m 0 min 0 min 126 W/m 3,2 km/h (1 Bft) 93,62 %
15.02.2021 13:38 1,4 C 0,6 C -2,2 C 92 % 1023,5 hPa 0,0 l/m 0 min 0 min 132 W/m 3,2 km/h (1 Bft) 95,74 %
15.02.2021 13:40 1,4 C 0,6 C -2,2 C 92 % 1023,4 hPa 0,0 l/m 0 min 0 min 138 W/m 0,0 km/h (0 Bft) 95,74 %
15.02.2021 13:42 1,4 C 0,6 C -2,2 C 92 % 1023,4 hPa 0,0 l/m 0 min 0 min 163 W/m 0,0 km/h (0 Bft) 97,83 %
15.02.2021 13:44 1,4 C 1,1 C -2,2 C 92 % 1023,3 hPa 0,0 l/m 0 min 0 min 148 W/m 0,0 km/h (0 Bft) 95,74 %
15.02.2021 13:46 1,4 C 0,6 C -2,2 C 92 % 1023,3 hPa 0,0 l/m 0 min 0 min 120 W/m 0,0 km/h (0 Bft) 97,87 %
15.02.2021 13:48 1,4 C 0,6 C -2,2 C 92 % 1023,4 hPa 0,0 l/m 0 min 0 min 112 W/m 0,0 km/h (0 Bft) 95,74 %
15.02.2021 13:50 1,4 C 0,6 C -2,2 C 92 % 1023,3 hPa 0,0 l/m 0 min 0 min 107 W/m 0,0 km/h (0 Bft) 95,74 %
15.02.2021 13:52 1,4 C 0,6 C -2,2 C 92 % 1023,1 hPa 0,0 l/m 0 min 0 min 95 W/m 3,2 km/h (1 Bft) 97,87 %
15.02.2021 13:54 1,5 C 0,6 C -2,2 C 92 % 1023,0 hPa 0,0 l/m 0 min 0 min 93 W/m 3,2 km/h (1 Bft) 95,65 %
15.02.2021 13:56 1,5 C 0,6 C -2,2 C 92 % 1023,0 hPa 0,0 l/m 0 min 0 min 97 W/m 12,9 km/h (3 Bft) 97,87 %
15.02.2021 13:58 1,5 C 0,6 C -2,2 C 92 % 1023,0 hPa 0,0 l/m 0 min 0 min 99 W/m 0,0 km/h (0 Bft) 95,74 %
15.02.2021 14:00 1,5 C 0,6 C -2,2 C 92 % 1022,9 hPa 0,0 l/m 0 min 0 min 90 W/m 3,2 km/h (1 Bft) 95,74 %
15.02.2021 14:02 1,5 C 0,6 C -2,2 C 92 % 1022,9 hPa 0,0 l/m 0 min 0 min 90 W/m 0,0 km/h (0 Bft) 93,62 %
15.02.2021 14:04 1,5 C 0,6 C -2,2 C 92 % 1022,9 hPa 0,0 l/m 0 min 0 min 88 W/m 3,2 km/h (1 Bft) 93,62 %
15.02.2021 14:06 1,5 C 0,6 C -2,2 C 93 % 1022,8 hPa 0,0 l/m 0 min 0 min 95 W/m 6,4 km/h (2 Bft) 97,83 %
15.02.2021 14:08 1,5 C 0,6 C -2,2 C 93 % 1022,7 hPa 0,0 l/m 0 min 0 min 101 W/m 6,4 km/h (2 Bft) 97,87 %
15.02.2021 14:10 1,5 C 1,1 C -2,2 C 93 % 1022,6 hPa 0,0 l/m 0 min 0 min 113 W/m 12,9 km/h (3 Bft) 97,87 %
15.02.2021 14:12 1,5 C 1,1 C -2,2 C 93 % 1022,7 hPa 0,2 l/m 0 min 0 min 104 W/m 0,0 km/h (0 Bft) 97,87 %
15.02.2021 14:14 1,6 C 1,1 C -2,2 C 93 % 1022,7 hPa 0,0 l/m 0 min 0 min 89 W/m 16,1 km/h (3 Bft) 97,87 %
15.02.2021 14:16 1,6 C 1,1 C -2,2 C 93 % 1022,7 hPa 0,0 l/m 0 min 0 min 95 W/m 3,2 km/h (1 Bft) 95,74 %
15.02.2021 14:18 1,6 C 1,1 C -2,2 C 93 % 1022,7 hPa 0,0 l/m 0 min 0 min 107 W/m 3,2 km/h (1 Bft) 97,83 %
15.02.2021 14:20 1,6 C 1,1 C -1,6 C 93 % 1022,8 hPa 0,0 l/m 0 min 0 min 107 W/m 0,0 km/h (0 Bft) 97,87 %
15.02.2021 14:22 1,6 C 1,1 C -1,6 C 93 % 1022,8 hPa 0,0 l/m 0 min 0 min 90 W/m 3,2 km/h (1 Bft) 95,74 %
15.02.2021 14:24 1,7 C 1,1 C -1,6 C 93 % 1023,0 hPa 0,0 l/m 0 min 0 min 76 W/m 16,1 km/h (3 Bft) 100,00 %
15.02.2021 14:26 1,7 C 1,1 C -1,6 C 93 % 1023,0 hPa 0,0 l/m 0 min 0 min 70 W/m 3,2 km/h (1 Bft) 100,00 %
15.02.2021 14:28 1,8 C 1,1 C -2,2 C 93 % 1023,1 hPa 0,0 l/m 0 min 0 min 69 W/m 0,0 km/h (0 Bft) 100,00 %
15.02.2021 14:30 1,8 C 1,1 C -1,6 C 93 % 1023,2 hPa 0,0 l/m 0 min 0 min 80 W/m 6,4 km/h (2 Bft) 100,00 %
15.02.2021 14:32 1,8 C 1,1 C -1,6 C 93 % 1023,2 hPa 0,0 l/m 0 min 0 min 87 W/m 0,0 km/h (0 Bft) 100,00 %
15.02.2021 14:34 1,8 C 1,1 C -1,6 C 93 % 1023,4 hPa 0,0 l/m 0 min 0 min 96 W/m 3,2 km/h (1 Bft) 100,00 %
15.02.2021 14:36 1,8 C 1,1 C -1,6 C 93 % 1023,3 hPa 0,0 l/m 0 min 0 min 100 W/m 3,2 km/h (1 Bft) 100,00 %
15.02.2021 14:38 1,9 C 1,7 C -1,6 C 93 % 1023,2 hPa 0,0 l/m 0 min 0 min 101 W/m 3,2 km/h (1 Bft) 100,00 %
15.02.2021 14:40 1,9 C 1,7 C -1,6 C 93 % 1023,2 hPa 0,0 l/m 0 min 0 min 104 W/m 3,2 km/h (1 Bft) 100,00 %
15.02.2021 14:42 1,9 C 1,7 C -1,6 C 93 % 1023,1 hPa 0,0 l/m 0 min 0 min 106 W/m 6,4 km/h (2 Bft) 100,00 %
15.02.2021 14:44 1,9 C 1,7 C -1,6 C 93 % 1023,1 hPa 0,0 l/m 0 min 0 min 118 W/m 3,2 km/h (1 Bft) 100,00 %
15.02.2021 14:46 2,0 C 1,7 C -1,6 C 93 % 1023,2 hPa 0,0 l/m 0 min 0 min 112 W/m 0,0 km/h (0 Bft) 100,00 %
15.02.2021 14:48 2,0 C 1,7 C -1,6 C 93 % 1023,2 hPa 0,0 l/m 0 min 0 min 119 W/m 0,0 km/h (0 Bft) 100,00 %
15.02.2021 14:50 2,0 C 1,7 C -1,6 C 93 % 1023,2 hPa 0,0 l/m 0 min 2 min 110 W/m 0,0 km/h (0 Bft) 97,87 %
15.02.2021 14:52 2,0 C 1,7 C -1,6 C 93 % 1023,2 hPa 0,0 l/m 0 min 2 min 105 W/m 3,2 km/h (1 Bft) 100,00 %
15.02.2021 14:54 2,0 C 1,7 C -1,6 C 93 % 1023,2 hPa 0,0 l/m 0 min 2 min 105 W/m 0,0 km/h (0 Bft) 100,00 %
15.02.2021 14:56 2,1 C 1,1 C -1,6 C 93 % 1023,1 hPa 0,0 l/m 0 min 2 min 122 W/m 3,2 km/h (1 Bft) 97,87 %
15.02.2021 14:58 2,1 C 1,7 C -1,1 C 93 % 1022,8 hPa 0,0 l/m 0 min 2 min 117 W/m 3,2 km/h (1 Bft) 97,87 %
15.02.2021 15:00 2,1 C 1,7 C -1,1 C 93 % 1023,0 hPa 0,0 l/m 0 min 2 min 102 W/m 0,0 km/h (0 Bft) 100,00 %
15.02.2021 15:02 2,1 C 1,7 C -1,1 C 93 % 1023,0 hPa 0,0 l/m 0 min 2 min 112 W/m 0,0 km/h (0 Bft) 95,74 %
15.02.2021 15:04 2,2 C 1,7 C -1,1 C 93 % 1023,1 hPa 0,0 l/m 0 min 0 min 97 W/m 0,0 km/h (0 Bft) 100,00 %
15.02.2021 15:06 2,2 C 1,7 C -1,1 C 93 % 1023,0 hPa 0,0 l/m 0 min 2 min 69 W/m 0,0 km/h (0 Bft) 97,87 %
15.02.2021 15:08 2,2 C 1,7 C -1,1 C 93 % 1022,9 hPa 0,0 l/m 0 min 2 min 74 W/m 0,0 km/h (0 Bft) 100,00 %
15.02.2021 15:10 2,2 C 1,7 C -1,1 C 93 % 1022,9 hPa 0,0 l/m 0 min 2 min 91 W/m 0,0 km/h (0 Bft) 100,00 %
15.02.2021 15:12 2,3 C 1,7 C -1,1 C 93 % 1023,0 hPa 0,0 l/m 0 min 2 min 104 W/m 6,4 km/h (2 Bft) 100,00 %
15.02.2021 15:14 2,3 C 1,7 C -1,1 C 93 % 1023,0 hPa 0,2 l/m 0 min 2 min 132 W/m 22,5 km/h (4 Bft) 100,00 %
15.02.2021 15:16 2,3 C 1,7 C -1,1 C 93 % 1023,0 hPa 0,0 l/m 0 min 2 min 136 W/m 0,0 km/h (0 Bft) 100,00 %
15.02.2021 15:18 2,3 C 1,7 C -1,1 C 93 % 1023,1 hPa 0,0 l/m 0 min 2 min 122 W/m 3,2 km/h (1 Bft) 100,00 %
15.02.2021 15:20 2,3 C 1,7 C -1,1 C 93 % 1023,0 hPa 0,0 l/m 0 min 0 min 92 W/m 0,0 km/h (0 Bft) 100,00 %
15.02.2021 15:22 2,3 C 1,7 C -1,1 C 93 % 1023,0 hPa 0,0 l/m 0 min 0 min 66 W/m 3,2 km/h (1 Bft) 100,00 %
15.02.2021 15:24 2,3 C 1,7 C -1,1 C 93 % 1023,0 hPa 0,0 l/m 0 min 0 min 67 W/m 0,0 km/h (0 Bft) 97,87 %
15.02.2021 15:26 2,3 C 1,7 C -1,1 C 93 % 1023,0 hPa 0,0 l/m 0 min 0 min 89 W/m 3,2 km/h (1 Bft) 100,00 %
15.02.2021 15:28 2,3 C 1,7 C -1,1 C 93 % 1022,9 hPa 0,0 l/m 0 min 0 min 93 W/m 3,2 km/h (1 Bft) 100,00 %
15.02.2021 15:30 2,3 C 1,7 C -1,1 C 93 % 1023,0 hPa 0,0 l/m 0 min 0 min 96 W/m 3,2 km/h (1 Bft) 100,00 %
15.02.2021 15:32 2,3 C 1,7 C -1,1 C 93 % 1022,9 hPa 0,0 l/m 0 min 0 min 80 W/m 3,2 km/h (1 Bft) 100,00 %
15.02.2021 15:34 2,3 C 1,7 C -1,1 C 92 % 1023,0 hPa 0,0 l/m 0 min 0 min 53 W/m 3,2 km/h (1 Bft) 100,00 %
15.02.2021 15:36 2,3 C 1,7 C -1,1 C 92 % 1022,9 hPa 0,0 l/m 0 min 0 min 49 W/m 0,0 km/h (0 Bft) 100,00 %
15.02.2021 15:38 2,3 C 1,7 C -1,1 C 92 % 1022,8 hPa 0,0 l/m 0 min 0 min 57 W/m 0,0 km/h (0 Bft) 100,00 %
15.02.2021 15:40 2,3 C 1,7 C -1,1 C 92 % 1022,8 hPa 0,0 l/m 0 min 0 min 76 W/m 0,0 km/h (0 Bft) 100,00 %
15.02.2021 15:42 2,3 C 1,7 C -1,1 C 92 % 1022,8 hPa 0,0 l/m 0 min 0 min 76 W/m 0,0 km/h (0 Bft) 100,00 %
15.02.2021 15:44 2,3 C 1,7 C -1,1 C 92 % 1022,7 hPa 0,0 l/m 0 min 0 min 57 W/m 0,0 km/h (0 Bft) 100,00 %
15.02.2021 15:46 2,3 C 1,7 C -1,1 C 92 % 1022,7 hPa 0,0 l/m 0 min 0 min 48 W/m 0,0 km/h (0 Bft) 100,00 %
15.02.2021 15:48 2,3 C 1,7 C -1,1 C 92 % 1022,7 hPa 0,0 l/m 0 min 0 min 40 W/m 0,0 km/h (0 Bft) 100,00 %
15.02.2021 15:50 2,3 C 1,7 C -1,1 C 92 % 1022,8 hPa 0,0 l/m 0 min 0 min 42 W/m 0,0 km/h (0 Bft) 97,83 %
15.02.2021 15:52 2,3 C 1,7 C -1,1 C 92 % 1022,8 hPa 0,0 l/m 0 min 0 min 45 W/m 0,0 km/h (0 Bft) 100,00 %
15.02.2021 15:54 2,3 C 1,1 C -1,1 C 92 % 1022,8 hPa 0,0 l/m 0 min 0 min 36 W/m 0,0 km/h (0 Bft) 95,74 %
15.02.2021 15:56 2,3 C 1,1 C -1,1 C 92 % 1022,8 hPa 0,0 l/m 0 min 0 min 30 W/m 3,2 km/h (1 Bft) 97,87 %
15.02.2021 15:58 2,3 C 1,1 C -1,1 C 92 % 1022,8 hPa 0,0 l/m 0 min 0 min 30 W/m 0,0 km/h (0 Bft) 97,87 %
15.02.2021 16:00 2,3 C 1,7 C -1,1 C 92 % 1022,8 hPa 0,0 l/m 0 min 0 min 38 W/m 0,0 km/h (0 Bft) 95,74 %
15.02.2021 16:02 2,3 C 1,1 C -1,1 C 93 % 1022,9 hPa 0,0 l/m 0 min 0 min 39 W/m 0,0 km/h (0 Bft) 97,83 %
15.02.2021 16:04 2,3 C 1,1 C -1,1 C 93 % 1023,0 hPa 0,0 l/m 0 min 0 min 32 W/m 0,0 km/h (0 Bft) 95,74 %
15.02.2021 16:06 2,3 C 1,1 C -1,1 C 93 % 1022,9 hPa 0,0 l/m 0 min 0 min 31 W/m 0,0 km/h (0 Bft) 95,74 %
15.02.2021 16:08 2,3 C 1,7 C -1,1 C 93 % 1022,9 hPa 0,0 l/m 0 min 0 min 28 W/m 0,0 km/h (0 Bft) 97,87 %
15.02.2021 16:11 2,3 C 1,1 C -1,1 C 93 % 1022,9 hPa 0,0 l/m 0 min 0 min 30 W/m 0,0 km/h (0 Bft) 94,29 %
15.02.2021 16:12 2,3 C 1,1 C -1,1 C 93 % 1022,9 hPa 0,0 l/m 0 min 0 min 30 W/m 0,0 km/h (0 Bft) 100,00 %
15.02.2021 16:14 2,3 C 1,7 C -1,1 C 93 % 1022,9 hPa 0,0 l/m 0 min 0 min 27 W/m 0,0 km/h (0 Bft) 97,87 %
15.02.2021 16:16 2,3 C 1,1 C -1,1 C 93 % 1022,9 hPa 0,0 l/m 0 min 0 min 26 W/m 0,0 km/h (0 Bft) 91,30 %
15.02.2021 16:18 2,3 C 1,1 C -1,1 C 93 % 1023,0 hPa 0,0 l/m 0 min 0 min 25 W/m 0,0 km/h (0 Bft) 93,62 %
15.02.2021 16:20 2,3 C 1,1 C -1,1 C 93 % 1023,1 hPa 0,0 l/m 0 min 0 min 24 W/m 0,0 km/h (0 Bft) 95,74 %
15.02.2021 16:22 2,3 C 1,1 C -1,1 C 93 % 1023,0 hPa 0,0 l/m 0 min 0 min 21 W/m 0,0 km/h (0 Bft) 95,74 %
15.02.2021 16:24 2,3 C 1,1 C -1,1 C 93 % 1023,0 hPa 0,0 l/m 0 min 0 min 19 W/m 0,0 km/h (0 Bft) 95,74 %
15.02.2021 16:26 2,3 C 1,1 C -1,1 C 93 % 1023,0 hPa 0,0 l/m 0 min 0 min 17 W/m 0,0 km/h (0 Bft) 95,65 %
15.02.2021 16:28 2,3 C 1,7 C -1,1 C 93 % 1023,0 hPa 0,0 l/m 0 min 0 min 19 W/m 0,0 km/h (0 Bft) 95,74 %
15.02.2021 16:30 2,3 C 1,7 C -1,1 C 93 % 1023,1 hPa 0,0 l/m 0 min 0 min 20 W/m 0,0 km/h (0 Bft) 95,74 %
15.02.2021 16:32 2,3 C 1,7 C -1,1 C 93 % 1023,0 hPa 0,0 l/m 0 min 0 min 23 W/m 0,0 km/h (0 Bft) 95,74 %
15.02.2021 16:34 2,3 C 1,7 C -1,1 C 93 % 1023,0 hPa 0,0 l/m 0 min 0 min 21 W/m 0,0 km/h (0 Bft) 93,62 %
15.02.2021 16:36 2,3 C 1,7 C -1,1 C 93 % 1023,0 hPa 0,0 l/m 0 min 0 min 20 W/m 0,0 km/h (0 Bft) 95,74 %
15.02.2021 16:38 2,3 C 1,7 C -1,1 C 93 % 1023,0 hPa 0,0 l/m 0 min 0 min 19 W/m 3,2 km/h (1 Bft) 96,43 %
15.02.2021 16:40 2,3 C 1,7 C -1,1 C 93 % 1022,9 hPa 0,0 l/m 0 min 0 min 18 W/m 0,0 km/h (0 Bft) 95,74 %
15.02.2021 16:42 2,3 C 1,7 C -1,1 C 93 % 1022,9 hPa 0,0 l/m 0 min 0 min 16 W/m 0,0 km/h (0 Bft) 91,49 %
15.02.2021 16:44 2,3 C 1,7 C -1,1 C 93 % 1022,8 hPa 0,0 l/m 0 min 0 min 17 W/m 3,2 km/h (1 Bft) 97,87 %
15.02.2021 16:46 2,3 C 1,7 C -1,1 C 94 % 1022,7 hPa 0,0 l/m 0 min 0 min 19 W/m 0,0 km/h (0 Bft) 97,83 %
15.02.2021 16:48 2,3 C 1,1 C -1,1 C 94 % 1022,8 hPa 0,0 l/m 0 min 0 min 19 W/m 3,2 km/h (1 Bft) 97,87 %
15.02.2021 16:50 2,3 C 1,7 C -1,1 C 94 % 1022,8 hPa 0,0 l/m 0 min 0 min 17 W/m 0,0 km/h (0 Bft) 100,00 %
15.02.2021 16:52 2,3 C 1,1 C -1,1 C 94 % 1022,7 hPa 0,0 l/m 0 min 0 min 21 W/m 0,0 km/h (0 Bft) 97,87 %
15.02.2021 16:54 2,3 C 1,1 C -1,1 C 94 % 1022,6 hPa 0,0 l/m 0 min 0 min 14 W/m 0,0 km/h (0 Bft) 97,87 %
15.02.2021 16:56 2,3 C 1,1 C -1,1 C 94 % 1022,6 hPa 0,2 l/m 0 min 0 min 18 W/m 0,0 km/h (0 Bft) 97,87 %
15.02.2021 16:58 2,3 C 1,1 C -1,1 C 94 % 1022,6 hPa 0,0 l/m 0 min 0 min 16 W/m 0,0 km/h (0 Bft) 74,47 %
15.02.2021 17:00 2,3 C 1,1 C -1,1 C 94 % 1022,7 hPa 0,0 l/m 0 min 2 min 11 W/m 0,0 km/h (0 Bft) 78,26 %
15.02.2021 17:02 2,3 C 1,1 C -1,1 C 94 % 1022,7 hPa 0,0 l/m 0 min 0 min 8 W/m 0,0 km/h (0 Bft) 94,44 %
15.02.2021 17:04 2,3 C 1,1 C -1,1 C 94 % 1022,8 hPa 0,0 l/m 0 min 0 min 8 W/m 0,0 km/h (0 Bft) 97,87 %
15.02.2021 17:06 2,3 C 1,1 C -1,1 C 94 % 1022,9 hPa 0,0 l/m 0 min 0 min 7 W/m 0,0 km/h (0 Bft) 97,87 %
15.02.2021 17:08 2,3 C 1,1 C -1,1 C 94 % 1022,8 hPa 0,0 l/m 0 min 0 min 8 W/m 0,0 km/h (0 Bft) 96,61 %
15.02.2021 17:10 2,3 C 1,1 C -1,1 C 94 % 1022,8 hPa 0,0 l/m 0 min 0 min 11 W/m 0,0 km/h (0 Bft) 97,14 %
15.02.2021 17:12 2,3 C 1,1 C -1,1 C 94 % 1022,8 hPa 0,0 l/m 0 min 0 min 11 W/m 0,0 km/h (0 Bft) 100,00 %
15.02.2021 17:14 2,3 C 1,7 C -1,1 C 94 % 1022,8 hPa 0,0 l/m 0 min 0 min 15 W/m 0,0 km/h (0 Bft) 97,87 %
15.02.2021 17:16 2,3 C 1,7 C -1,1 C 94 % 1022,8 hPa 0,0 l/m 0 min 0 min 9 W/m 0,0 km/h (0 Bft) 95,74 %
15.02.2021 17:18 2,3 C 1,7 C -1,1 C 94 % 1022,9 hPa 0,0 l/m 0 min 0 min 5 W/m 0,0 km/h (0 Bft) 97,87 %
15.02.2021 17:20 2,3 C 1,7 C -1,1 C 94 % 1023,0 hPa 0,0 l/m 0 min 0 min 1 W/m 0,0 km/h (0 Bft) 97,87 %
15.02.2021 17:22 2,3 C 1,7 C -1,1 C 94 % 1023,0 hPa 0,0 l/m 0 min 2 min 5 W/m 0,0 km/h (0 Bft) 97,87 %
15.02.2021 17:24 2,3 C 1,7 C -1,1 C 95 % 1023,0 hPa 0,0 l/m 0 min 0 min 1 W/m 0,0 km/h (0 Bft) 97,87 %
15.02.2021 17:26 2,3 C 1,7 C -1,1 C 95 % 1022,9 hPa 0,0 l/m 0 min 0 min 0 W/m 0,0 km/h (0 Bft) 97,83 %
15.02.2021 17:28 2,3 C 1,7 C -1,1 C 95 % 1023,0 hPa 0,0 l/m 0 min 0 min 0 W/m 3,2 km/h (1 Bft) 97,87 %
15.02.2021 17:30 2,4 C 1,7 C -1,1 C 95 % 1023,1 hPa 0,0 l/m 0 min 0 min 0 W/m 0,0 km/h (0 Bft) 97,87 %
15.02.2021 17:32 2,4 C 1,7 C -1,1 C 95 % 1023,1 hPa 0,0 l/m 0 min 0 min 0 W/m 0,0 km/h (0 Bft) 97,87 %
15.02.2021 17:34 2,4 C 1,7 C -1,1 C 95 % 1023,1 hPa 0,0 l/m 0 min 0 min 0 W/m 0,0 km/h (0 Bft) 97,87 %
15.02.2021 17:36 2,4 C 1,7 C -1,1 C 95 % 1023,2 hPa 0,0 l/m 0 min 0 min 0 W/m 0,0 km/h (0 Bft) 97,83 %
15.02.2021 17:38 2,4 C 1,7 C -1,1 C 95 % 1023,2 hPa 0,0 l/m 0 min 0 min 0 W/m 3,2 km/h (1 Bft) 95,74 %
15.02.2021 17:40 2,4 C 1,7 C -1,1 C 95 % 1023,2 hPa 0,0 l/m 0 min 0 min 0 W/m 0,0 km/h (0 Bft) 97,87 %
15.02.2021 17:42 2,4 C 1,7 C -1,1 C 95 % 1023,2 hPa 0,0 l/m 0 min 0 min 0 W/m 0,0 km/h (0 Bft) 97,87 %
15.02.2021 17:44 2,4 C 1,7 C -1,1 C 95 % 1023,2 hPa 0,0 l/m 0 min 0 min 0 W/m 0,0 km/h (0 Bft) 97,87 %
15.02.2021 17:46 2,4 C 1,7 C -1,1 C 95 % 1023,2 hPa 0,0 l/m 0 min 0 min 0 W/m 0,0 km/h (0 Bft) 95,74 %
15.02.2021 17:48 2,4 C 1,7 C -1,1 C 95 % 1023,2 hPa 0,0 l/m 0 min 0 min 0 W/m 3,2 km/h (1 Bft) 97,83 %
15.02.2021 17:50 2,4 C 1,7 C -1,1 C 95 % 1023,2 hPa 0,0 l/m 0 min 0 min 0 W/m 0,0 km/h (0 Bft) 97,87 %
15.02.2021 17:52 2,3 C 1,7 C -1,1 C 95 % 1023,2 hPa 0,0 l/m 0 min 0 min 0 W/m 0,0 km/h (0 Bft) 97,87 %
15.02.2021 17:54 2,3 C 1,1 C -1,1 C 95 % 1023,1 hPa 0,0 l/m 0 min 0 min 0 W/m 0,0 km/h (0 Bft) 97,87 %
15.02.2021 17:56 2,3 C 1,1 C -1,1 C 95 % 1023,1 hPa 0,0 l/m 0 min 0 min 0 W/m 0,0 km/h (0 Bft) 97,87 %
15.02.2021 17:58 2,3 C 1,1 C -1,1 C 95 % 1023,2 hPa 0,0 l/m 0 min 0 min 0 W/m 0,0 km/h (0 Bft) 97,87 %
15.02.2021 18:00 2,3 C 1,7 C -1,1 C 95 % 1023,2 hPa 0,0 l/m 0 min 0 min 0 W/m 0,0 km/h (0 Bft) 97,83 %
15.02.2021 18:02 2,3 C 1,7 C -1,1 C 95 % 1023,2 hPa 0,0 l/m 0 min 0 min 0 W/m 0,0 km/h (0 Bft) 95,83 %
15.02.2021 18:04 2,3 C 1,1 C -1,1 C 95 % 1023,2 hPa 0,0 l/m 0 min 0 min 0 W/m 0,0 km/h (0 Bft) 97,87 %
15.02.2021 18:06 2,3 C 1,7 C -1,1 C 95 % 1023,2 hPa 0,0 l/m 0 min 0 min 0 W/m 3,2 km/h (1 Bft) 97,96 %
15.02.2021 18:08 2,3 C 1,1 C -1,1 C 96 % 1023,2 hPa 0,0 l/m 0 min 0 min 0 W/m 0,0 km/h (0 Bft) 97,87 %
15.02.2021 18:10 2,2 C 1,7 C -1,1 C 96 % 1023,3 hPa 0,0 l/m 0 min 0 min 0 W/m 0,0 km/h (0 Bft) 97,83 %
15.02.2021 18:12 2,2 C 1,7 C -1,1 C 96 % 1023,3 hPa 0,0 l/m 0 min 0 min 0 W/m 0,0 km/h (0 Bft) 97,87 %
15.02.2021 18:14 2,2 C 1,7 C -1,1 C 96 % 1023,3 hPa 0,0 l/m 0 min 0 min 0 W/m 3,2 km/h (1 Bft) 97,87 %
15.02.2021 18:16 2,2 C 1,7 C -1,1 C 96 % 1023,3 hPa 0,0 l/m 0 min 0 min 0 W/m 0,0 km/h (0 Bft) 97,87 %
15.02.2021 18:18 2,2 C 1,7 C -1,1 C 96 % 1023,3 hPa 0,0 l/m 0 min 0 min 0 W/m 0,0 km/h (0 Bft) 100,00 %
15.02.2021 18:20 2,2 C 1,7 C -1,1 C 96 % 1023,3 hPa 0,0 l/m 0 min 0 min 0 W/m 0,0 km/h (0 Bft) 100,00 %
15.02.2021 18:22 2,3 C 1,7 C -1,1 C 96 % 1023,3 hPa 0,0 l/m 0 min 0 min 0 W/m 0,0 km/h (0 Bft) 95,65 %
15.02.2021 18:24 2,3 C 1,7 C -1,1 C 96 % 1023,4 hPa 0,0 l/m 0 min 0 min 0 W/m 0,0 km/h (0 Bft) 97,87 %
15.02.2021 18:26 2,3 C 1,7 C -1,1 C 96 % 1023,3 hPa 0,0 l/m 0 min 0 min 0 W/m 0,0 km/h (0 Bft) 97,87 %
15.02.2021 18:28 2,3 C 1,7 C -1,1 C 96 % 1023,4 hPa 0,0 l/m 0 min 0 min 0 W/m 0,0 km/h (0 Bft) 100,00 %
15.02.2021 18:30 2,3 C 1,7 C -1,1 C 96 % 1023,4 hPa 0,0 l/m 0 min 0 min 0 W/m 0,0 km/h (0 Bft) 100,00 %
15.02.2021 18:32 2,3 C 1,7 C -1,1 C 96 % 1023,5 hPa 0,0 l/m 0 min 0 min 0 W/m 0,0 km/h (0 Bft) 96,55 %
15.02.2021 18:34 2,3 C 1,7 C -1,1 C 96 % 1023,4 hPa 0,0 l/m 0 min 0 min 0 W/m 0,0 km/h (0 Bft) 95,65 %
15.02.2021 18:36 2,3 C 1,7 C -1,1 C 96 % 1023,5 hPa 0,0 l/m 0 min 0 min 0 W/m 0,0 km/h (0 Bft) 97,87 %
15.02.2021 18:38 2,3 C 1,7 C -1,1 C 96 % 1023,4 hPa 0,0 l/m 0 min 0 min 0 W/m 0,0 km/h (0 Bft) 97,87 %
15.02.2021 18:40 2,3 C 1,7 C -0,5 C 96 % 1023,4 hPa 0,0 l/m 0 min 0 min 0 W/m 0,0 km/h (0 Bft) 97,87 %
15.02.2021 18:42 2,3 C 1,7 C -0,5 C 96 % 1023,4 hPa 0,0 l/m 0 min 0 min 0 W/m 0,0 km/h (0 Bft) 100,00 %
15.02.2021 18:44 2,3 C 1,7 C -0,5 C 96 % 1023,3 hPa 0,0 l/m 0 min 0 min 0 W/m 0,0 km/h (0 Bft) 95,74 %
15.02.2021 18:46 2,3 C 1,7 C -1,1 C 96 % 1023,3 hPa 0,0 l/m 0 min 0 min 0 W/m 0,0 km/h (0 Bft) 50,00 %
15.02.2021 18:48 2,3 C 1,7 C -0,5 C 96 % 1023,4 hPa 0,0 l/m 0 min 0 min 0 W/m 0,0 km/h (0 Bft) 97,87 %
15.02.2021 18:50 2,3 C 1,7 C -0,5 C 96 % 1023,4 hPa 0,0 l/m 0 min 0 min 0 W/m 0,0 km/h (0 Bft) 97,87 %
15.02.2021 18:52 2,4 C 1,7 C -0,5 C 96 % 1023,3 hPa 0,0 l/m 0 min 0 min 0 W/m 0,0 km/h (0 Bft) 95,74 %
15.02.2021 18:54 2,4 C 1,7 C -0,5 C 96 % 1023,4 hPa 0,0 l/m 0 min 0 min 0 W/m 0,0 km/h (0 Bft) 95,74 %
15.02.2021 18:56 2,3 C 1,7 C -0,5 C 96 % 1023,4 hPa 0,0 l/m 0 min 0 min 0 W/m 0,0 km/h (0 Bft) 93,62 %
15.02.2021 18:58 2,3 C 1,7 C -1,1 C 96 % 1023,4 hPa 0,0 l/m 0 min 0 min 0 W/m 0,0 km/h (0 Bft) 93,48 %
15.02.2021 19:00 2,3 C 1,7 C -1,1 C 96 % 1023,4 hPa 0,0 l/m 0 min 0 min 0 W/m 0,0 km/h (0 Bft) 95,74 %
15.02.2021 19:02 2,3 C 1,7 C -1,1 C 96 % 1023,4 hPa 0,0 l/m 0 min 0 min 0 W/m 0,0 km/h (0 Bft) 93,62 %
15.02.2021 19:04 2,3 C 1,7 C -0,5 C 96 % 1023,3 hPa 0,0 l/m 0 min 0 min 0 W/m 0,0 km/h (0 Bft) 95,74 %
15.02.2021 19:06 2,3 C 1,7 C -0,5 C 96 % 1023,4 hPa 0,0 l/m 0 min 0 min 0 W/m 0,0 km/h (0 Bft) 95,74 %
15.02.2021 19:08 2,4 C 1,7 C -0,5 C 97 % 1023,3 hPa 0,0 l/m 0 min 0 min 0 W/m 0,0 km/h (0 Bft) 93,62 %
15.02.2021 19:10 2,4 C 1,7 C -0,5 C 97 % 1023,4 hPa 0,0 l/m 0 min 0 min 0 W/m 3,2 km/h (1 Bft) 93,48 %
15.02.2021 19:12 2,4 C 1,7 C -0,5 C 97 % 1023,4 hPa 0,0 l/m 0 min 0 min 0 W/m 0,0 km/h (0 Bft) 93,62 %
15.02.2021 19:14 2,4 C 1,7 C -0,5 C 97 % 1023,4 hPa 0,0 l/m 0 min 0 min 0 W/m 0,0 km/h (0 Bft) 95,74 %
15.02.2021 19:16 2,4 C 1,7 C -0,5 C 97 % 1023,4 hPa 0,0 l/m 0 min 0 min 0 W/m 0,0 km/h (0 Bft) 97,87 %
15.02.2021 19:18 2,4 C 1,7 C -0,5 C 97 % 1023,4 hPa 0,0 l/m 0 min 0 min 0 W/m 0,0 km/h (0 Bft) 97,87 %
15.02.2021 19:20 2,4 C 1,7 C -0,5 C 97 % 1023,4 hPa 0,0 l/m 0 min 0 min 0 W/m 0,0 km/h (0 Bft) 95,74 %
15.02.2021 19:22 2,4 C 1,7 C -0,5 C 97 % 1023,5 hPa 0,0 l/m 0 min 0 min 0 W/m 0,0 km/h (0 Bft) 97,83 %
15.02.2021 19:24 2,4 C 1,7 C -0,5 C 97 % 1023,5 hPa 0,0 l/m 0 min 0 min 0 W/m 0,0 km/h (0 Bft) 97,87 %
15.02.2021 19:26 2,4 C 1,7 C -0,5 C 97 % 1023,5 hPa 0,0 l/m 0 min 0 min 0 W/m 0,0 km/h (0 Bft) 95,74 %
15.02.2021 19:28 2,4 C 1,7 C -0,5 C 97 % 1023,5 hPa 0,0 l/m 0 min 0 min 0 W/m 0,0 km/h (0 Bft) 97,87 %
15.02.2021 19:30 2,4 C 1,7 C -0,5 C 97 % 1023,5 hPa 0,2 l/m 0 min 0 min 0 W/m 0,0 km/h (0 Bft) 97,87 %
15.02.2021 19:32 2,4 C 1,7 C -0,5 C 97 % 1023,5 hPa 0,0 l/m 0 min 0 min 0 W/m 0,0 km/h (0 Bft) 97,83 %
15.02.2021 19:34 2,4 C 2,2 C -0,5 C 97 % 1023,5 hPa 0,0 l/m 0 min 0 min 0 W/m 0,0 km/h (0 Bft) 98,11 %
15.02.2021 19:36 2,4 C 2,2 C -0,5 C 97 % 1023,5 hPa 0,0 l/m 0 min 0 min 0 W/m 0,0 km/h (0 Bft) 97,87 %
15.02.2021 19:38 2,4 C 2,2 C -0,5 C 97 % 1023,6 hPa 0,0 l/m 0 min 0 min 0 W/m 0,0 km/h (0 Bft) 97,87 %
15.02.2021 19:40 2,4 C 2,2 C -0,5 C 97 % 1023,5 hPa 0,0 l/m 0 min 0 min 0 W/m 0,0 km/h (0 Bft) 95,74 %
15.02.2021 19:42 2,5 C 2,2 C -0,5 C 97 % 1023,6 hPa 0,0 l/m 0 min 0 min 0 W/m 0,0 km/h (0 Bft) 97,87 %
15.02.2021 19:44 2,5 C 2,2 C -0,5 C 97 % 1023,5 hPa 0,0 l/m 0 min 0 min 0 W/m 0,0 km/h (0 Bft) 95,74 %
15.02.2021 19:46 2,5 C 2,2 C -0,5 C 97 % 1023,5 hPa 0,0 l/m 0 min 0 min 0 W/m 0,0 km/h (0 Bft) 97,83 %
15.02.2021 19:48 2,5 C 2,2 C -0,5 C 97 % 1023,6 hPa 0,0 l/m 0 min 0 min 0 W/m 0,0 km/h (0 Bft) 100,00 %
15.02.2021 19:50 2,5 C 2,2 C -0,5 C 97 % 1023,6 hPa 0,0 l/m 0 min 0 min 0 W/m 0,0 km/h (0 Bft) 100,00 %
15.02.2021 19:52 2,5 C 2,2 C -0,5 C 97 % 1023,6 hPa 0,0 l/m 0 min 0 min 0 W/m 0,0 km/h (0 Bft) 95,74 %
15.02.2021 19:54 2,5 C 2,2 C -0,5 C 97 % 1023,5 hPa 0,0 l/m 0 min 0 min 0 W/m 0,0 km/h (0 Bft) 100,00 %
15.02.2021 19:56 2,5 C 2,2 C -0,5 C 97 % 1023,5 hPa 0,0 l/m 0 min 0 min 0 W/m 0,0 km/h (0 Bft) 100,00 %
15.02.2021 19:58 2,5 C 2,2 C -0,5 C 97 % 1023,5 hPa 0,0 l/m 0 min 0 min 0 W/m 0,0 km/h (0 Bft) 100,00 %
15.02.2021 20:00 2,5 C 2,2 C -0,5 C 97 % 1023,5 hPa 0,0 l/m 0 min 0 min 0 W/m 0,0 km/h (0 Bft) 100,00 %
15.02.2021 20:02 2,5 C 2,2 C -0,5 C 97 % 1023,6 hPa 0,0 l/m 0 min 0 min 0 W/m 0,0 km/h (0 Bft) 97,87 %
15.02.2021 20:04 2,5 C 2,2 C -0,5 C 97 % 1023,6 hPa 0,0 l/m 0 min 0 min 0 W/m 0,0 km/h (0 Bft) 100,00 %
15.02.2021 20:06 2,5 C 2,2 C -0,5 C 97 % 1023,6 hPa 0,0 l/m 0 min 0 min 0 W/m 0,0 km/h (0 Bft) 100,00 %
15.02.2021 20:08 2,6 C 2,2 C -0,5 C 97 % 1023,6 hPa 0,0 l/m 0 min 0 min 0 W/m 0,0 km/h (0 Bft) 100,00 %
15.02.2021 20:10 2,5 C 2,2 C -0,5 C 97 % 1023,6 hPa 0,0 l/m 0 min 0 min 0 W/m 0,0 km/h (0 Bft) 100,00 %
15.02.2021 20:12 2,5 C 2,2 C -0,5 C 97 % 1023,6 hPa 0,0 l/m 0 min 0 min 0 W/m 0,0 km/h (0 Bft) 97,87 %
15.02.2021 20:14 2,5 C 2,2 C -0,5 C 97 % 1023,6 hPa 0,0 l/m 0 min 0 min 0 W/m 0,0 km/h (0 Bft) 100,00 %
15.02.2021 20:16 2,6 C 2,2 C -0,5 C 97 % 1023,5 hPa 0,0 l/m 0 min 0 min 0 W/m 0,0 km/h (0 Bft) 100,00 %
15.02.2021 20:18 2,6 C 2,2 C -0,5 C 97 % 1023,6 hPa 0,0 l/m 0 min 0 min 0 W/m 0,0 km/h (0 Bft) 100,00 %
15.02.2021 20:20 2,6 C 2,2 C -0,5 C 97 % 1023,6 hPa 0,0 l/m 0 min 0 min 0 W/m 0,0 km/h (0 Bft) 100,00 %
15.02.2021 20:22 2,6 C 2,2 C -0,5 C 97 % 1023,6 hPa 0,0 l/m 0 min 0 min 0 W/m 0,0 km/h (0 Bft) 100,00 %
15.02.2021 20:24 2,6 C 2,2 C -0,5 C 97 % 1023,6 hPa 0,0 l/m 0 min 0 min 0 W/m 0,0 km/h (0 Bft) 97,87 %
15.02.2021 20:26 2,6 C 2,2 C -0,5 C 97 % 1023,6 hPa 0,0 l/m 0 min 0 min 0 W/m 0,0 km/h (0 Bft) 100,00 %
15.02.2021 20:28 2,6 C 2,2 C -0,5 C 97 % 1023,6 hPa 0,0 l/m 0 min 0 min 0 W/m 0,0 km/h (0 Bft) 100,00 %
15.02.2021 20:30 2,6 C 2,2 C -0,5 C 97 % 1023,6 hPa 0,0 l/m 0 min 0 min 0 W/m 0,0 km/h (0 Bft) 100,00 %
15.02.2021 20:32 2,6 C 2,2 C -0,5 C 97 % 1023,6 hPa 0,0 l/m 0 min 0 min 0 W/m 0,0 km/h (0 Bft) 97,83 %
15.02.2021 20:34 2,6 C 2,2 C -0,5 C 97 % 1023,6 hPa 0,0 l/m 0 min 0 min 0 W/m 0,0 km/h (0 Bft) 100,00 %
15.02.2021 20:36 2,6 C 2,2 C -0,5 C 97 % 1023,6 hPa 0,0 l/m 0 min 0 min 0 W/m 0,0 km/h (0 Bft) 100,00 %
15.02.2021 20:38 2,6 C 2,2 C -0,5 C 97 % 1023,6 hPa 0,0 l/m 0 min 0 min 0 W/m 0,0 km/h (0 Bft) 100,00 %
15.02.2021 20:40 2,6 C 2,2 C -0,5 C 97 % 1023,6 hPa 0,0 l/m 0 min 0 min 0 W/m 0,0 km/h (0 Bft) 100,00 %
15.02.2021 20:42 2,6 C 2,2 C -0,5 C 97 % 1023,6 hPa 0,0 l/m 0 min 0 min 0 W/m 0,0 km/h (0 Bft) 100,00 %
15.02.2021 20:44 2,6 C 2,2 C -0,5 C 97 % 1023,6 hPa 0,0 l/m 0 min 0 min 0 W/m 0,0 km/h (0 Bft) 100,00 %
15.02.2021 20:46 2,7 C 2,2 C -0,5 C 97 % 1023,6 hPa 0,0 l/m 0 min 0 min 0 W/m 0,0 km/h (0 Bft) 100,00 %
15.02.2021 20:48 2,7 C 2,2 C -0,5 C 97 % 1023,6 hPa 0,0 l/m 0 min 0 min 0 W/m 0,0 km/h (0 Bft) 97,87 %
15.02.2021 20:50 2,7 C 2,2 C -0,5 C 97 % 1023,6 hPa 0,0 l/m 0 min 0 min 0 W/m 0,0 km/h (0 Bft) 100,00 %
15.02.2021 20:52 2,7 C 2,8 C -0,5 C 97 % 1023,6 hPa 0,0 l/m 0 min 0 min 0 W/m 0,0 km/h (0 Bft) 100,00 %
15.02.2021 20:54 2,7 C 2,8 C -0,5 C 97 % 1023,5 hPa 0,0 l/m 0 min 0 min 0 W/m 0,0 km/h (0 Bft) 100,00 %
15.02.2021 20:56 2,7 C 2,8 C -0,5 C 97 % 1023,6 hPa 0,0 l/m 0 min 0 min 0 W/m 0,0 km/h (0 Bft) 100,00 %
15.02.2021 20:58 2,8 C 2,8 C -0,5 C 97 % 1023,6 hPa 0,0 l/m 0 min 0 min 0 W/m 0,0 km/h (0 Bft) 95,74 %
15.02.2021 21:00 2,8 C 2,8 C -0,5 C 97 % 1023,6 hPa 0,0 l/m 0 min 0 min 0 W/m 3,2 km/h (1 Bft) 100,00 %
15.02.2021 21:02 2,8 C 2,8 C -0,5 C 97 % 1023,7 hPa 0,0 l/m 0 min 0 min 0 W/m 0,0 km/h (0 Bft) 97,87 %
15.02.2021 21:04 2,8 C 2,8 C -0,5 C 97 % 1023,6 hPa 0,0 l/m 0 min 0 min 0 W/m 0,0 km/h (0 Bft) 97,87 %
15.02.2021 21:06 2,8 C 2,2 C -0,5 C 97 % 1023,7 hPa 0,0 l/m 0 min 0 min 0 W/m 0,0 km/h (0 Bft) 97,87 %
15.02.2021 21:08 2,8 C 2,2 C -0,5 C 97 % 1023,7 hPa 0,0 l/m 0 min 0 min 0 W/m 0,0 km/h (0 Bft) 97,83 %
15.02.2021 21:10 2,8 C 2,2 C -0,5 C 98 % 1023,7 hPa 0,0 l/m 0 min 0 min 0 W/m 0,0 km/h (0 Bft) 97,87 %
15.02.2021 21:12 2,8 C 2,2 C -0,5 C 97 % 1023,7 hPa 0,0 l/m 0 min 0 min 0 W/m 0,0 km/h (0 Bft) 97,87 %
15.02.2021 21:14 2,8 C 2,2 C -0,5 C 97 % 1023,6 hPa 0,0 l/m 0 min 0 min 0 W/m 0,0 km/h (0 Bft) 97,87 %
15.02.2021 21:16 2,8 C 2,2 C -0,5 C 97 % 1023,6 hPa 0,0 l/m 0 min 0 min 0 W/m 0,0 km/h (0 Bft) 93,62 %
15.02.2021 21:18 2,8 C 2,2 C -0,5 C 98 % 1023,5 hPa 0,0 l/m 0 min 0 min 0 W/m 0,0 km/h (0 Bft) 97,87 %
15.02.2021 21:20 2,8 C 2,2 C -0,5 C 97 % 1023,5 hPa 0,0 l/m 0 min 0 min 0 W/m 0,0 km/h (0 Bft) 97,83 %
15.02.2021 21:22 2,8 C 2,2 C -0,5 C 97 % 1023,5 hPa 0,0 l/m 0 min 0 min 0 W/m 0,0 km/h (0 Bft) 97,87 %
15.02.2021 21:24 2,8 C 2,2 C -0,5 C 98 % 1023,5 hPa 0,0 l/m 0 min 0 min 0 W/m 0,0 km/h (0 Bft) 97,87 %
15.02.2021 21:26 2,8 C 2,2 C -0,5 C 98 % 1023,5 hPa 0,0 l/m 0 min 0 min 0 W/m 0,0 km/h (0 Bft) 95,74 %
15.02.2021 21:28 2,8 C 2,2 C -0,5 C 98 % 1023,6 hPa 0,0 l/m 0 min 0 min 0 W/m 0,0 km/h (0 Bft) 97,87 %
15.02.2021 21:30 2,8 C 2,2 C -0,5 C 98 % 1023,6 hPa 0,0 l/m 0 min 0 min 0 W/m 0,0 km/h (0 Bft) 97,83 %
15.02.2021 21:32 2,8 C 2,2 C 0,0 C 98 % 1023,6 hPa 0,0 l/m 0 min 0 min 0 W/m 0,0 km/h (0 Bft) 97,87 %
15.02.2021 21:34 2,8 C 2,2 C -0,5 C 98 % 1023,6 hPa 0,0 l/m 0 min 0 min 0 W/m 0,0 km/h (0 Bft) 97,87 %
15.02.2021 21:36 2,8 C 2,2 C -0,5 C 98 % 1023,7 hPa 0,0 l/m 0 min 0 min 0 W/m 0,0 km/h (0 Bft) 97,87 %
15.02.2021 21:38 2,8 C 2,2 C -0,5 C 98 % 1023,7 hPa 0,0 l/m 0 min 0 min 0 W/m 0,0 km/h (0 Bft) 97,87 %
15.02.2021 21:40 2,8 C 2,2 C -0,5 C 98 % 1023,7 hPa 0,0 l/m 0 min 0 min 0 W/m 0,0 km/h (0 Bft) 100,00 %
15.02.2021 21:42 2,8 C 2,2 C -0,5 C 98 % 1023,7 hPa 0,0 l/m 0 min 0 min 0 W/m 0,0 km/h (0 Bft) 97,67 %
15.02.2021 21:44 2,8 C 2,2 C -0,5 C 98 % 1023,7 hPa 0,0 l/m 0 min 0 min 0 W/m 0,0 km/h (0 Bft) 100,00 %
15.02.2021 21:46 2,8 C 2,2 C -0,5 C 98 % 1023,7 hPa 0,0 l/m 0 min 0 min 0 W/m 0,0 km/h (0 Bft) 97,87 %
15.02.2021 21:48 2,8 C 2,2 C -0,5 C 98 % 1023,7 hPa 0,0 l/m 0 min 0 min 0 W/m 0,0 km/h (0 Bft) 100,00 %
15.02.2021 21:50 2,8 C 2,2 C -0,5 C 98 % 1023,7 hPa 0,0 l/m 0 min 0 min 0 W/m 0,0 km/h (0 Bft) 100,00 %
15.02.2021 21:52 2,8 C 2,2 C -0,5 C 98 % 1023,6 hPa 0,0 l/m 0 min 0 min 0 W/m 0,0 km/h (0 Bft) 97,87 %
15.02.2021 21:54 2,8 C 2,2 C -0,5 C 98 % 1023,7 hPa 0,0 l/m 0 min 0 min 0 W/m 0,0 km/h (0 Bft) 95,74 %
15.02.2021 21:56 2,9 C 2,2 C -0,5 C 98 % 1023,7 hPa 0,0 l/m 0 min 0 min 0 W/m 0,0 km/h (0 Bft) 93,62 %
15.02.2021 21:58 2,9 C 2,8 C -0,5 C 98 % 1023,7 hPa 0,0 l/m 0 min 0 min 0 W/m 0,0 km/h (0 Bft) 95,65 %
15.02.2021 22:00 2,9 C 2,8 C -0,5 C 98 % 1023,6 hPa 0,0 l/m 0 min 0 min 0 W/m 0,0 km/h (0 Bft) 95,74 %
15.02.2021 22:02 2,9 C 2,8 C 0,0 C 98 % 1023,7 hPa 0,0 l/m 0 min 0 min 0 W/m 0,0 km/h (0 Bft) 91,67 %
15.02.2021 22:04 2,9 C 2,8 C 0,0 C 98 % 1023,7 hPa 0,0 l/m 0 min 0 min 0 W/m 0,0 km/h (0 Bft) 95,74 %
15.02.2021 22:06 2,9 C 2,8 C 0,0 C 98 % 1023,6 hPa 0,0 l/m 0 min 0 min 0 W/m 0,0 km/h (0 Bft) 95,74 %
15.02.2021 22:08 2,9 C 2,8 C -0,5 C 98 % 1023,7 hPa 0,0 l/m 0 min 0 min 0 W/m 0,0 km/h (0 Bft) 95,74 %
15.02.2021 22:10 2,9 C 2,8 C -0,5 C 98 % 1023,6 hPa 0,0 l/m 0 min 0 min 0 W/m 0,0 km/h (0 Bft) 93,48 %
15.02.2021 22:12 2,9 C 2,8 C 0,0 C 98 % 1023,6 hPa 0,0 l/m 0 min 0 min 0 W/m 0,0 km/h (0 Bft) 95,74 %
15.02.2021 22:14 2,9 C 2,8 C -0,5 C 98 % 1023,6 hPa 0,0 l/m 0 min 0 min 0 W/m 0,0 km/h (0 Bft) 93,62 %
15.02.2021 22:16 2,9 C 2,8 C 0,0 C 98 % 1023,6 hPa 0,0 l/m 0 min 0 min 0 W/m 0,0 km/h (0 Bft) 95,74 %
15.02.2021 22:18 2,9 C 2,8 C 0,0 C 98 % 1023,6 hPa 0,0 l/m 0 min 0 min 0 W/m 0,0 km/h (0 Bft) 93,62 %
15.02.2021 22:20 3,0 C 2,8 C 0,0 C 98 % 1023,6 hPa 0,0 l/m 0 min 0 min 0 W/m 0,0 km/h (0 Bft) 93,62 %
15.02.2021 22:22 3,0 C 2,8 C 0,0 C 98 % 1023,6 hPa 0,0 l/m 0 min 0 min 0 W/m 0,0 km/h (0 Bft) 95,65 %
15.02.2021 22:24 3,0 C 2,8 C 0,0 C 98 % 1023,6 hPa 0,0 l/m 0 min 0 min 0 W/m 0,0 km/h (0 Bft) 95,74 %
15.02.2021 22:26 3,0 C 2,8 C 0,0 C 98 % 1023,6 hPa 0,0 l/m 0 min 0 min 0 W/m 0,0 km/h (0 Bft) 95,74 %
15.02.2021 22:28 3,0 C 2,8 C 0,0 C 98 % 1023,7 hPa 0,0 l/m 0 min 0 min 0 W/m 0,0 km/h (0 Bft) 95,74 %
15.02.2021 22:30 3,0 C 2,8 C 0,0 C 98 % 1023,7 hPa 0,0 l/m 0 min 0 min 0 W/m 0,0 km/h (0 Bft) 95,74 %
15.02.2021 22:32 3,0 C 2,8 C 0,0 C 98 % 1023,7 hPa 0,0 l/m 0 min 0 min 0 W/m 0,0 km/h (0 Bft) 95,83 %
15.02.2021 22:34 3,0 C 2,8 C 0,0 C 98 % 1023,6 hPa 0,0 l/m 0 min 0 min 0 W/m 0,0 km/h (0 Bft) 95,65 %
15.02.2021 22:36 3,1 C 2,8 C 0,0 C 98 % 1023,5 hPa 0,0 l/m 0 min 0 min 0 W/m 0,0 km/h (0 Bft) 95,74 %
15.02.2021 22:38 3,1 C 2,8 C 0,0 C 98 % 1023,5 hPa 0,0 l/m 0 min 0 min 0 W/m 0,0 km/h (0 Bft) 95,74 %
15.02.2021 22:40 3,1 C 2,8 C 0,0 C 98 % 1023,5 hPa 0,0 l/m 0 min 0 min 0 W/m 0,0 km/h (0 Bft) 97,87 %
15.02.2021 22:42 3,1 C 2,8 C 0,0 C 98 % 1023,5 hPa 0,0 l/m 0 min 0 min 0 W/m 0,0 km/h (0 Bft) 95,74 %
15.02.2021 22:44 3,1 C 2,8 C 0,0 C 98 % 1023,5 hPa 0,0 l/m 0 min 0 min 0 W/m 0,0 km/h (0 Bft) 97,87 %
15.02.2021 22:46 3,2 C 2,8 C 0,0 C 98 % 1023,6 hPa 0,0 l/m 0 min 0 min 0 W/m 0,0 km/h (0 Bft) 97,83 %
15.02.2021 22:48 3,2 C 2,8 C 0,0 C 98 % 1023,6 hPa 0,0 l/m 0 min 0 min 0 W/m 0,0 km/h (0 Bft) 95,74 %
15.02.2021 22:50 3,2 C 2,8 C 0,0 C 98 % 1023,6 hPa 0,0 l/m 0 min 0 min 0 W/m 0,0 km/h (0 Bft) 97,87 %
15.02.2021 22:52 3,2 C 2,8 C 0,0 C 98 % 1023,6 hPa 0,0 l/m 0 min 0 min 0 W/m 0,0 km/h (0 Bft) 97,87 %
15.02.2021 22:54 3,3 C 2,8 C 0,0 C 98 % 1023,6 hPa 0,0 l/m 0 min 0 min 0 W/m 0,0 km/h (0 Bft) 97,87 %
15.02.2021 22:56 3,3 C 2,8 C 0,0 C 98 % 1023,6 hPa 0,0 l/m 0 min 0 min 0 W/m 0,0 km/h (0 Bft) 97,87 %
15.02.2021 22:58 3,3 C 2,8 C 0,0 C 98 % 1023,6 hPa 0,0 l/m 0 min 0 min 0 W/m 0,0 km/h (0 Bft) 95,65 %
15.02.2021 23:00 3,3 C 2,8 C 0,0 C 98 % 1023,5 hPa 0,0 l/m 0 min 0 min 0 W/m 0,0 km/h (0 Bft) 97,87 %
15.02.2021 23:02 3,3 C 2,8 C 0,0 C 98 % 1023,5 hPa 0,0 l/m 0 min 0 min 0 W/m 0,0 km/h (0 Bft) 97,92 %
15.02.2021 23:04 3,3 C 2,8 C 0,0 C 98 % 1023,6 hPa 0,0 l/m 0 min 0 min 0 W/m 0,0 km/h (0 Bft) 97,87 %
15.02.2021 23:06 3,3 C 2,8 C 0,0 C 98 % 1023,5 hPa 0,0 l/m 0 min 0 min 0 W/m 0,0 km/h (0 Bft) 95,74 %
15.02.2021 23:08 3,3 C 2,8 C 0,0 C 98 % 1023,5 hPa 0,0 l/m 0 min 0 min 0 W/m 0,0 km/h (0 Bft) 97,87 %
15.02.2021 23:10 3,3 C 2,8 C 0,0 C 98 % 1023,5 hPa 0,0 l/m 0 min 0 min 0 W/m 0,0 km/h (0 Bft) 95,74 %
15.02.2021 23:12 3,3 C 2,8 C 0,0 C 98 % 1023,4 hPa 0,0 l/m 0 min 0 min 0 W/m 0,0 km/h (0 Bft) 97,87 %
15.02.2021 23:14 3,3 C 2,8 C 0,0 C 98 % 1023,3 hPa 0,0 l/m 0 min 0 min 0 W/m 0,0 km/h (0 Bft) 97,87 %
15.02.2021 23:16 3,3 C 2,8 C 0,0 C 98 % 1023,3 hPa 0,0 l/m 0 min 0 min 0 W/m 0,0 km/h (0 Bft) 97,87 %
15.02.2021 23:18 3,2 C 2,8 C 0,0 C 98 % 1023,3 hPa 0,0 l/m 0 min 0 min 0 W/m 0,0 km/h (0 Bft) 97,83 %
15.02.2021 23:20 3,2 C 2,8 C 0,0 C 98 % 1023,3 hPa 0,0 l/m 0 min 0 min 0 W/m 0,0 km/h (0 Bft) 97,87 %
15.02.2021 23:22 3,2 C 2,8 C 0,0 C 98 % 1023,4 hPa 0,0 l/m 0 min 0 min 0 W/m 0,0 km/h (0 Bft) 100,00 %
15.02.2021 23:24 3,2 C 2,8 C 0,0 C 98 % 1023,4 hPa 0,0 l/m 0 min 0 min 0 W/m 0,0 km/h (0 Bft) 100,00 %
15.02.2021 23:26 3,1 C 2,8 C 0,0 C 98 % 1023,3 hPa 0,0 l/m 0 min 0 min 0 W/m 0,0 km/h (0 Bft) 95,74 %
15.02.2021 23:28 3,2 C 2,8 C 0,0 C 98 % 1023,3 hPa 0,0 l/m 0 min 0 min 0 W/m 0,0 km/h (0 Bft) 100,00 %
15.02.2021 23:30 3,1 C 2,8 C 0,0 C 98 % 1023,3 hPa 0,0 l/m 0 min 0 min 0 W/m 0,0 km/h (0 Bft) 97,83 %
15.02.2021 23:32 3,1 C 2,8 C 0,0 C 98 % 1023,3 hPa 0,0 l/m 0 min 0 min 0 W/m 0,0 km/h (0 Bft) 100,00 %
15.02.2021 23:34 3,1 C 2,8 C 0,0 C 98 % 1023,3 hPa 0,0 l/m 0 min 0 min 0 W/m 0,0 km/h (0 Bft) 95,74 %
15.02.2021 23:36 3,1 C 2,8 C 0,0 C 98 % 1023,3 hPa 0,0 l/m 0 min 0 min 0 W/m 0,0 km/h (0 Bft) 95,74 %
15.02.2021 23:38 3,1 C 2,8 C 0,0 C 98 % 1023,3 hPa 0,0 l/m 0 min 0 min 0 W/m 0,0 km/h (0 Bft) 97,87 %
15.02.2021 23:40 3,1 C 2,8 C 0,0 C 98 % 1023,3 hPa 0,0 l/m 0 min 0 min 0 W/m 0,0 km/h (0 Bft) 97,87 %
15.02.2021 23:42 3,1 C 2,8 C 0,0 C 98 % 1023,4 hPa 0,0 l/m 0 min 0 min 0 W/m 0,0 km/h (0 Bft) 97,83 %
15.02.2021 23:44 3,2 C 2,8 C 0,0 C 98 % 1023,4 hPa 0,0 l/m 0 min 0 min 0 W/m 0,0 km/h (0 Bft) 95,74 %
15.02.2021 23:46 3,2 C 2,8 C 0,0 C 98 % 1023,4 hPa 0,0 l/m 0 min 0 min 0 W/m 0,0 km/h (0 Bft) 97,87 %
15.02.2021 23:48 3,2 C 2,8 C 0,0 C 98 % 1023,4 hPa 0,0 l/m 0 min 0 min 0 W/m 0,0 km/h (0 Bft) 97,87 %
15.02.2021 23:50 3,2 C 2,8 C 0,6 C 98 % 1023,3 hPa 0,0 l/m 0 min 0 min 0 W/m 0,0 km/h (0 Bft) 97,87 %
15.02.2021 23:52 3,2 C 2,8 C 0,6 C 98 % 1023,3 hPa 0,0 l/m 0 min 0 min 0 W/m 0,0 km/h (0 Bft) 97,87 %
15.02.2021 23:54 3,2 C 2,8 C 0,6 C 98 % 1023,3 hPa 0,0 l/m 0 min 0 min 0 W/m 0,0 km/h (0 Bft) 93,48 %
15.02.2021 23:56 3,3 C 2,8 C 0,6 C 98 % 1023,4 hPa 0,2 l/m 0 min 0 min 0 W/m 0,0 km/h (0 Bft) 95,74 %
15.02.2021 23:58 3,3 C 2,8 C 0,6 C 98 % 1023,4 hPa 0,0 l/m 0 min 0 min 0 W/m 0,0 km/h (0 Bft) 97,87 %
_ Min-Zeit 01:08 00:58 00:52 02:32 14:10 - - - - 00:04 18:46
Minimum _ 0,3 C -0,6 C -4,4 C 58 % 1022,6 hPa - - - - 0,0 km/h (0 Bft) 50,00 %
_ Max-Zeit 22:54 20:52 23:50 21:10 00:00 07:20 00:00 11:06 13:42 08:42 00:00
Maximum _ 3,3 C 2,8 C 0,6 C 98 % 1031,9 hPa 0,2 l/m 0 min 2 min 163 W/m 22,5 km/h
S-SO (4 Bft)
100,00 %
Durchschnitt _ 1,5 C 1,0 C -2,3 C 79 % 1025,9 hPa #3,0 l/m #0 min. #1:56 h 59 W/m 2,2 km/h (1 Bft) 97,30 %
© 2021 W. Hausmann